NOAA Web Site Link Tides and Currents Home Page Transparent placeholder image

Notice: We are experiencing a wide spread communication outage affecting the availability of water level and meteorological data for some of our stations, as well as several critical bridge clearance measurements. We are diligently working to resolve this data outage. Please direct all questions to tide.predictions@noaa.gov or call (301) 713-2815.

PORTS® Data Listing: 9414290 San Francisco, CA

CO-OPS RAW PORTS DATA

************************      PRELIMINARY DATA      ************************** 

     THIS RAW DATA HAS NOT BEEN SUBJECT TO THE NATIONAL OCEAN SERVICE'S        
     QUALITY CONTROL OR QUALITY ASSURANCE PROCEDURES AND DOES NOT MEET         
     THE CRITERIA AND STANDARDS OF OFFICIAL NATIONAL OCEAN SERVICE             
     DATA.  IT IS RELEASED FOR LIMITED PUBLIC USE AS PRELIMINARY DATA TO       
     BE USED ONLY WITH APPROPRIATE CAUTION.                                    

************************      PRELIMINARY DATA      ************************** 


       CD   -   Calendar date
       T    -   Time
       TZ   -   Timezone
       PW   -   Predicted water level (feet above MLLW)
       OW   -   Observed water level (feet above MLLW)
       WS   -   Wind speed (knots)
       WD   -   Wind direction (degrees true)
       WG   -   Wind gust (knots)
       AT   -   Air temperature (degrees farenheit)
       WT   -   Water temperature (degrees farenheit)
       AP   -   Air pressure (millibars)
       SA   -   Salinty (PSU - Practical Salinity Units)
       SG   -   Specific gravity
       RH   -   Relative humidity
       AG   -   Air gap (feet)
       VI   -   Visibility (nautical miles)

       ** NOTE **
       A variable that has its data fields filled with "9"s, indicates that
       data was not collected for that sample period.
       **********


STATION NAME: San Francisco (9414290)
****************************************************************************************************
    CD       T    TZ    PW     OW    WS   WD   WG    AT    WT    AP    SA    SG     RH    AG   VI
****************************************************************************************************
2019/04/19 21:06 PDT    3.21   3.69   12  248   18  52.2  56.3 1012.2 -9.9 -9.999 -99.9 -99.99 -9.99
2019/04/19 21:12 PDT    3.33   3.81   10  259   17  52.2  56.3 1012.3 -9.9 -9.999 -99.9 -99.99 -9.99
2019/04/19 21:18 PDT    3.46   3.93   10  243   16  52.2  56.3 1012.3 -9.9 -9.999 -99.9 -99.99 -9.99
2019/04/19 21:24 PDT    3.58   4.09   10  252   15  52.3  56.3 1012.4 -9.9 -9.999 -99.9 -99.99 -9.99
2019/04/19 21:30 PDT    3.70   4.20   11  250   17  52.2  56.3 1012.5 -9.9 -9.999 -99.9 -99.99 -9.99
2019/04/19 21:36 PDT    3.83   4.31   12  275   17  52.2  56.3 1012.6 -9.9 -9.999 -99.9 -99.99 -9.99
2019/04/19 21:42 PDT    3.95   4.40   10  252   16  52.3  56.3 1012.5 -9.9 -9.999 -99.9 -99.99 -9.99
2019/04/19 21:48 PDT    4.07   4.50    8  258   14  52.3  56.3 1012.5 -9.9 -9.999 -99.9 -99.99 -9.99
2019/04/19 21:54 PDT    4.19   4.61   11  269   16  52.3  56.3 1012.5 -9.9 -9.999 -99.9 -99.99 -9.99
2019/04/19 22:00 PDT    4.31   4.74    8  269   18  52.3  56.3 1012.6 -9.9 -9.999 -99.9 -99.99 -9.99
2019/04/19 22:06 PDT    4.42   4.81   10  247   15  52.3  56.3 1012.6 -9.9 -9.999 -99.9 -99.99 -9.99
2019/04/19 22:12 PDT    4.54   4.92    9  265   16  52.3  56.3 1012.7 -9.9 -9.999 -99.9 -99.99 -9.99
2019/04/19 22:18 PDT    4.65   5.05   11  247   18  52.3  56.3 1012.7 -9.9 -9.999 -99.9 -99.99 -9.99
2019/04/19 22:24 PDT    4.76   5.14    9  262   13  52.3  56.3 1012.7 -9.9 -9.999 -99.9 -99.99 -9.99
2019/04/19 22:30 PDT    4.87   5.25    8  247   13  52.5  56.3 1012.6 -9.9 -9.999 -99.9 -99.99 -9.99
2019/04/19 22:36 PDT    4.97   5.36    7  248   13  52.7  56.1 1012.7 -9.9 -9.999 -99.9 -99.99 -9.99
2019/04/19 22:42 PDT    5.08   5.46    8  259   12  52.9  55.8 1012.7 -9.9 -9.999 -99.9 -99.99 -9.99
2019/04/19 22:48 PDT    5.18   5.57    9  243   14  52.9  55.2 1012.7 -9.9 -9.999 -99.9 -99.99 -9.99
2019/04/19 22:54 PDT    5.27   5.64    8  245   16  53.1  54.9 1012.6 -9.9 -9.999 -99.9 -99.99 -9.99
2019/04/19 23:00 PDT    5.36   5.72    8  258   14  53.1  54.9 1012.6 -9.9 -9.999 -99.9 -99.99 -9.99
2019/04/19 23:06 PDT    5.45   5.79    7  262   13  53.2  54.7 1012.6 -9.9 -9.999 -99.9 -99.99 -9.99
2019/04/19 23:12 PDT    5.54   5.89   10  240   19  53.1  54.5 1012.6 -9.9 -9.999 -99.9 -99.99 -9.99
2019/04/19 23:18 PDT    5.62   5.98    9  252   15  53.2  54.3 1012.6 -9.9 -9.999 -99.9 -99.99 -9.99
2019/04/19 23:24 PDT    5.69   6.05   10  246   17  53.1  54.3 1012.6 -9.9 -9.999 -99.9 -99.99 -9.99
2019/04/19 23:30 PDT    5.77   6.13   10  253   18  53.2  54.1 1012.6 -9.9 -9.999 -99.9 -99.99 -9.99
2019/04/19 23:36 PDT    5.83   6.19    8  252   22  53.1  54.1 1012.7 -9.9 -9.999 -99.9 -99.99 -9.99
2019/04/19 23:42 PDT    5.89   6.27   11  238   17  53.1  54.1 1012.8 -9.9 -9.999 -99.9 -99.99 -9.99
2019/04/19 23:48 PDT    5.95   6.37   11  239   17  52.7  54.1 1012.8 -9.9 -9.999 -99.9 -99.99 -9.99
2019/04/19 23:54 PDT    5.99   6.43   10  260   16  52.7  54.0 1012.9 -9.9 -9.999 -99.9 -99.99 -9.99
2019/04/20 00:00 PDT    6.04   6.47   11  248   16  52.5  54.0 1012.8 -9.9 -9.999 -99.9 -99.99 -9.99
2019/04/20 00:06 PDT    6.07   6.51   13  256   20  52.5  54.0 1012.9 -9.9 -9.999 -99.9 -99.99 -9.99
2019/04/20 00:12 PDT    6.10   6.55   12  247   19  52.3  54.0 1012.8 -9.9 -9.999 -99.9 -99.99 -9.99
2019/04/20 00:18 PDT    6.12   6.57   10  249   19  52.3  54.0 1012.9 -9.9 -9.999 -99.9 -99.99 -9.99
2019/04/20 00:24 PDT    6.14   6.58   10  246   19  52.3  54.0 1012.9 -9.9 -9.999 -99.9 -99.99 -9.99
2019/04/20 00:30 PDT    6.14   6.63   11  252   17  52.3  54.0 1012.9 -9.9 -9.999 -99.9 -99.99 -9.99
2019/04/20 00:36 PDT    6.14   6.63   12  244   17  52.2  53.8 1012.9 -9.9 -9.999 -99.9 -99.99 -9.99
2019/04/20 00:42 PDT    6.14   6.60   13  251   18  52.2  53.8 1012.9 -9.9 -9.999 -99.9 -99.99 -9.99
2019/04/20 00:48 PDT    6.12   6.59   11  252   22  52.0  53.8 1013.0 -9.9 -9.999 -99.9 -99.99 -9.99
2019/04/20 00:54 PDT    6.10   6.58   12  254   20  52.0  53.6 1013.0 -9.9 -9.999 -99.9 -99.99 -9.99
2019/04/20 01:00 PDT    6.06   6.55   10  255   17  52.0  53.6 1013.1 -9.9 -9.999 -99.9 -99.99 -9.99
2019/04/20 01:06 PDT    6.02   6.54    8  254   20  52.0  53.6 1013.0 -9.9 -9.999 -99.9 -99.99 -9.99
2019/04/20 01:12 PDT    5.97   6.49    9  247   14  51.8  53.6 1013.0 -9.9 -9.999 -99.9 -99.99 -9.99
2019/04/20 01:18 PDT    5.92   6.42   12  235   17  51.8  53.8 1012.9 -9.9 -9.999 -99.9 -99.99 -9.99
2019/04/20 01:24 PDT    5.85   6.33   10  260   17  52.0  53.8 1012.9 -9.9 -9.999 -99.9 -99.99 -9.99
2019/04/20 01:30 PDT    5.78   6.26   12  249   21  51.8  53.8 1012.8 -9.9 -9.999 -99.9 -99.99 -9.99
2019/04/20 01:36 PDT    5.70   6.20    8  240   16  52.0  53.8 1012.7 -9.9 -9.999 -99.9 -99.99 -9.99
2019/04/20 01:42 PDT    5.61   6.11    7  252   13  52.0  53.8 1012.7 -9.9 -9.999 -99.9 -99.99 -9.99
2019/04/20 01:48 PDT    5.51   6.02    8  250   17  51.8  53.8 1012.6 -9.9 -9.999 -99.9 -99.99 -9.99
2019/04/20 01:54 PDT    5.41   5.91    9  237   16  51.8  53.8 1012.5 -9.9 -9.999 -99.9 -99.99 -9.99
2019/04/20 02:00 PDT    5.30   5.79   11  243   16  51.8  53.6 1012.5 -9.9 -9.999 -99.9 -99.99 -9.99
2019/04/20 02:06 PDT    5.18   5.66    9  248   17  52.0  53.6 1012.5 -9.9 -9.999 -99.9 -99.99 -9.99
2019/04/20 02:12 PDT    5.06   5.56   11  248   17  52.0  53.4 1012.5 -9.9 -9.999 -99.9 -99.99 -9.99
2019/04/20 02:18 PDT    4.93   5.44   10  246   19  52.0  53.4 1012.4 -9.9 -9.999 -99.9 -99.99 -9.99
2019/04/20 02:24 PDT    4.79   5.30   11  244   20  52.0  53.4 1012.3 -9.9 -9.999 -99.9 -99.99 -9.99
2019/04/20 02:30 PDT    4.65   5.17   10  243   17  52.0  53.2 1012.3 -9.9 -9.999 -99.9 -99.99 -9.99
2019/04/20 02:36 PDT    4.50   5.02    8  249   15  52.2  53.2 1012.2 -9.9 -9.999 -99.9 -99.99 -9.99
2019/04/20 02:42 PDT    4.34   4.85   11  252   17  52.0  53.2 1012.1 -9.9 -9.999 -99.9 -99.99 -9.99
2019/04/20 02:48 PDT    4.19   4.69    7  243   16  52.2  53.2 1012.0 -9.9 -9.999 -99.9 -99.99 -9.99
2019/04/20 02:54 PDT    4.03   4.54    7  256   12  52.2  53.2 1012.0 -9.9 -9.999 -99.9 -99.99 -9.99
2019/04/20 03:00 PDT    3.86   4.37    8  245   14  52.2  53.2 1012.1 -9.9 -9.999 -99.9 -99.99 -9.99
2019/04/20 03:06 PDT    3.69   4.21   10  239   15  52.2  53.4 1012.1 -9.9 -9.999 -99.9 -99.99 -9.99
2019/04/20 03:12 PDT    3.52   4.01    9  237   16  52.2  53.4 1012.0 -9.9 -9.999 -99.9 -99.99 -9.99
2019/04/20 03:18 PDT    3.35   3.81    6  243   14  52.2  53.4 1012.1 -9.9 -9.999 -99.9 -99.99 -9.99
2019/04/20 03:24 PDT    3.17   3.61    6  268   13  52.2  53.4 1012.1 -9.9 -9.999 -99.9 -99.99 -9.99
2019/04/20 03:30 PDT    3.00   3.38    7  278   11  52.2  53.4 1012.1 -9.9 -9.999 -99.9 -99.99 -9.99
2019/04/20 03:36 PDT    2.82   3.18    7  260   15  52.2  53.6 1012.0 -9.9 -9.999 -99.9 -99.99 -9.99
2019/04/20 03:42 PDT    2.64   2.99    7  278   12  52.3  53.6 1011.8 -9.9 -9.999 -99.9 -99.99 -9.99
2019/04/20 03:48 PDT    2.46   2.78    8  281   12  52.2  53.6 1011.8 -9.9 -9.999 -99.9 -99.99 -9.99
2019/04/20 03:54 PDT    2.29   2.58    5  288   10  52.3  53.6 1011.9 -9.9 -9.999 -99.9 -99.99 -9.99
2019/04/20 04:00 PDT    2.11   2.40    5  253   11  52.3  53.8 1011.9 -9.9 -9.999 -99.9 -99.99 -9.99
2019/04/20 04:06 PDT    1.94   2.21    7  260   14  52.2  53.8 1011.9 -9.9 -9.999 -99.9 -99.99 -9.99
2019/04/20 04:12 PDT    1.77   2.03    8  240   13  52.3  53.8 1012.0 -9.9 -9.999 -99.9 -99.99 -9.99
2019/04/20 04:18 PDT    1.60   1.89    8  251   15  52.3  54.0 1012.0 -9.9 -9.999 -99.9 -99.99 -9.99
2019/04/20 04:24 PDT    1.44   1.76   11  245   18  52.3  53.8 1011.9 -9.9 -9.999 -99.9 -99.99 -9.99
2019/04/20 04:30 PDT    1.28   1.57   11  238   19  52.5  53.6 1011.9 -9.9 -9.999 -99.9 -99.99 -9.99
2019/04/20 04:36 PDT    1.12   1.41    6  241   12  52.5  53.6 1011.9 -9.9 -9.999 -99.9 -99.99 -9.99
2019/04/20 04:42 PDT    0.97   1.32    8  237   14  52.5  53.4 1012.1 -9.9 -9.999 -99.9 -99.99 -9.99
2019/04/20 04:48 PDT    0.82   1.20   10  240   16  52.5  53.4 1012.3 -9.9 -9.999 -99.9 -99.99 -9.99
2019/04/20 04:54 PDT    0.68   1.04   12  239   19  52.5  53.4 1012.1 -9.9 -9.999 -99.9 -99.99 -9.99
2019/04/20 05:00 PDT    0.55   0.88   15  238   20  52.5  53.4 1012.2 -9.9 -9.999 -99.9 -99.99 -9.99
2019/04/20 05:06 PDT    0.42   0.76   13  243   20  52.5  53.6 1012.4 -9.9 -9.999 -99.9 -99.99 -9.99
2019/04/20 05:12 PDT    0.30   0.65   11  249   16  52.7  53.6 1012.2 -9.9 -9.999 -99.9 -99.99 -9.99
2019/04/20 05:18 PDT    0.18   0.54   13  241   21  52.7  53.6 1012.0 -9.9 -9.999 -99.9 -99.99 -9.99
2019/04/20 05:24 PDT    0.07   0.45   13  238   18  52.7  53.6 1012.0 -9.9 -9.999 -99.9 -99.99 -9.99
2019/04/20 05:30 PDT   -0.03   0.38    9  241   19  52.7  53.6 1012.3 -9.9 -9.999 -99.9 -99.99 -9.99
2019/04/20 05:36 PDT   -0.12   0.25    9  241   18  52.9  53.6 1012.3 -9.9 -9.999 -99.9 -99.99 -9.99
2019/04/20 05:42 PDT   -0.21   0.19    8  255   19  52.7  53.6 1012.4 -9.9 -9.999 -99.9 -99.99 -9.99
2019/04/20 05:48 PDT   -0.29   0.16    9  271   16  52.7  53.6 1012.4 -9.9 -9.999 -99.9 -99.99 -9.99
2019/04/20 05:54 PDT   -0.36   0.11    8  257   18  52.7  53.6 1012.5 -9.9 -9.999 -99.9 -99.99 -9.99
2019/04/20 06:00 PDT   -0.43   0.10    8  259   15  52.9  53.6 1012.5 -9.9 -9.999 -99.9 -99.99 -9.99
2019/04/20 06:06 PDT   -0.48   0.03    7  236   17  52.9  53.6 1012.3 -9.9 -9.999 -99.9 -99.99 -9.99
2019/04/20 06:12 PDT   -0.53  -0.03    8  247   15  52.9  53.8 1012.3 -9.9 -9.999 -99.9 -99.99 -9.99
2019/04/20 06:18 PDT   -0.58  -0.07    8  249   12  52.9  53.8 1012.3 -9.9 -9.999 -99.9 -99.99 -9.99
2019/04/20 06:24 PDT   -0.61  -0.05    9  240   13  52.9  54.0 1012.4 -9.9 -9.999 -99.9 -99.99 -9.99
2019/04/20 06:30 PDT   -0.64  -0.07    8  239   18  52.9  54.1 1012.3 -9.9 -9.999 -99.9 -99.99 -9.99
2019/04/20 06:36 PDT   -0.66  -0.09    5  235   11  52.9  54.5 1012.4 -9.9 -9.999 -99.9 -99.99 -9.99
2019/04/20 06:42 PDT   -0.67  -0.12    6  271   11  52.9  54.9 1012.5 -9.9 -9.999 -99.9 -99.99 -9.99
2019/04/20 06:48 PDT   -0.67  -0.14    4  251    9  52.9  54.9 1012.5 -9.9 -9.999 -99.9 -99.99 -9.99
2019/04/20 06:54 PDT   -0.67  -0.12    3  253   14  53.1  54.9 1012.5 -9.9 -9.999 -99.9 -99.99 -9.99
2019/04/20 07:00 PDT   -0.66  -0.16    7  263   11  53.1  54.9 1012.6 -9.9 -9.999 -99.9 -99.99 -9.99
2019/04/20 07:06 PDT   -0.64  -0.13    4  276   11  53.1  54.9 1012.7 -9.9 -9.999 -99.9 -99.99 -9.99
2019/04/20 07:12 PDT   -0.62  -0.07    6  254   13  52.9  54.9 1012.8 -9.9 -9.999 -99.9 -99.99 -9.99
2019/04/20 07:18 PDT   -0.59  -0.02    6  246   14  53.1  55.0 1012.6 -9.9 -9.999 -99.9 -99.99 -9.99
2019/04/20 07:24 PDT   -0.55   0.01    7  246   11  53.1  55.0 1012.8 -9.9 -9.999 -99.9 -99.99 -9.99
2019/04/20 07:30 PDT   -0.51   0.04    9  243   14  53.1  55.2 1013.0 -9.9 -9.999 -99.9 -99.99 -9.99
2019/04/20 07:36 PDT   -0.46   0.08    9  257   16  53.1  55.9 1013.1 -9.9 -9.999 -99.9 -99.99 -9.99
2019/04/20 07:42 PDT   -0.40   0.13    7  241   18  53.1  56.1 1013.0 -9.9 -9.999 -99.9 -99.99 -9.99
2019/04/20 07:48 PDT   -0.34   0.19    8  255   19  53.1  56.3 1013.1 -9.9 -9.999 -99.9 -99.99 -9.99
2019/04/20 07:54 PDT   -0.27   0.29   12  251   19  53.1  56.3 1013.1 -9.9 -9.999 -99.9 -99.99 -9.99
2019/04/20 08:00 PDT   -0.20   0.37    7  241   17  53.2  56.5 1013.1 -9.9 -9.999 -99.9 -99.99 -9.99
2019/04/20 08:06 PDT   -0.12   0.46   11  244   18  53.4  56.7 1013.2 -9.9 -9.999 -99.9 -99.99 -9.99
2019/04/20 08:12 PDT   -0.04   0.52    9  257   21  53.8  56.8 1013.3 -9.9 -9.999 -99.9 -99.99 -9.99
2019/04/20 08:18 PDT    0.05   0.62    8  268   12  53.8  56.8 1013.4 -9.9 -9.999 -99.9 -99.99 -9.99
2019/04/20 08:24 PDT    0.14   0.66    8  272   16  53.6  57.0 1013.4 -9.9 -9.999 -99.9 -99.99 -9.99
2019/04/20 08:30 PDT    0.24   0.72    7  262   13  53.4  57.2 1013.4 -9.9 -9.999 -99.9 -99.99 -9.99
2019/04/20 08:36 PDT    0.34   0.81    5  261   13  53.6  57.2 1013.4 -9.9 -9.999 -99.9 -99.99 -9.99
2019/04/20 08:42 PDT    0.44   0.92    6  278   13  54.0  57.4 1013.5 -9.9 -9.999 -99.9 -99.99 -9.99
2019/04/20 08:48 PDT    0.55   0.99    7  282   14  54.1  57.4 1013.6 -9.9 -9.999 -99.9 -99.99 -9.99
2019/04/20 08:54 PDT    0.66   1.11   11  266   16  54.1  57.4 1013.6 -9.9 -9.999 -99.9 -99.99 -9.99
2019/04/20 09:00 PDT    0.77   1.22    9  264   15  54.3  57.6 1013.6 -9.9 -9.999 -99.9 -99.99 -9.99
2019/04/20 09:06 PDT    0.88   1.34    9  276   12  54.5  57.6 1013.6 -9.9 -9.999 -99.9 -99.99 -9.99
2019/04/20 09:12 PDT    1.00   1.45   10  255   17  54.5  57.6 1013.6 -9.9 -9.999 -99.9 -99.99 -9.99
2019/04/20 09:18 PDT    1.12   1.57    8  256   17  54.7  57.7 1013.7 -9.9 -9.999 -99.9 -99.99 -9.99
2019/04/20 09:24 PDT    1.24   1.70    9  261   17  54.5  57.7 1013.8 -9.9 -9.999 -99.9 -99.99 -9.99
2019/04/20 09:30 PDT    1.37   1.82   12  272   17  54.3  57.7 1013.8 -9.9 -9.999 -99.9 -99.99 -9.99
2019/04/20 09:36 PDT    1.49   1.92    9  266   17  54.3  57.7 1013.9 -9.9 -9.999 -99.9 -99.99 -9.99
2019/04/20 09:42 PDT    1.62   2.05   11  261   17  54.3  57.7 1014.0 -9.9 -9.999 -99.9 -99.99 -9.99
2019/04/20 09:48 PDT    1.74   2.16   11  260   19  54.3  57.9 1014.1 -9.9 -9.999 -99.9 -99.99 -9.99
2019/04/20 09:54 PDT    1.87   2.26   14  266   22  54.0  57.9 1014.1 -9.9 -9.999 -99.9 -99.99 -9.99
2019/04/20 10:00 PDT    2.00   2.35   16  271   21  53.8  57.9 1014.1 -9.9 -9.999 -99.9 -99.99 -9.99
2019/04/20 10:06 PDT    2.12   2.50   15  270   21  53.8  57.9 1014.2 -9.9 -9.999 -99.9 -99.99 -9.99
2019/04/20 10:12 PDT    2.25   2.65   14  268   21  53.8  57.9 1014.3 -9.9 -9.999 -99.9 -99.99 -9.99
2019/04/20 10:18 PDT    2.38   2.78   11  266   25  54.0  57.9 1014.4 -9.9 -9.999 -99.9 -99.99 -9.99
2019/04/20 10:24 PDT    2.50   2.86   12  266   19  54.1  57.9 1014.5 -9.9 -9.999 -99.9 -99.99 -9.99
2019/04/20 10:30 PDT    2.63   2.96   14  266   20  54.1  57.4 1014.5 -9.9 -9.999 -99.9 -99.99 -9.99
2019/04/20 10:36 PDT    2.75   3.07   14  267   18  54.3  57.4 1014.5 -9.9 -9.999 -99.9 -99.99 -9.99
2019/04/20 10:42 PDT    2.88   3.22   11  270   19  54.5  57.2 1014.6 -9.9 -9.999 -99.9 -99.99 -9.99
2019/04/20 10:48 PDT    3.00   3.37   12  275   24  54.7  57.4 1014.7 -9.9 -9.999 -99.9 -99.99 -9.99
2019/04/20 10:54 PDT    3.12   3.51   14  269   19  54.7  57.4 1014.7 -9.9 -9.999 -99.9 -99.99 -9.99
2019/04/20 11:00 PDT    3.24   3.64   13  275   22  55.0  57.4 1014.8 -9.9 -9.999 -99.9 -99.99 -9.99
2019/04/20 11:06 PDT    3.36   3.75   12  266   19  55.2  57.6 1014.9 -9.9 -9.999 -99.9 -99.99 -9.99
2019/04/20 11:12 PDT    3.47   3.86   11  258   21  55.2  57.6 1014.9 -9.9 -9.999 -99.9 -99.99 -9.99
2019/04/20 11:18 PDT    3.59   3.96   12  259   18  55.2  56.7 1015.0 -9.9 -9.999 -99.9 -99.99 -9.99
2019/04/20 11:24 PDT    3.70   4.07   11  264   19  55.6  56.5 1015.0 -9.9 -9.999 -99.9 -99.99 -9.99
2019/04/20 11:30 PDT    3.81   4.17   14  266   21  55.2  55.9 1015.1 -9.9 -9.999 -99.9 -99.99 -9.99
2019/04/20 11:36 PDT    3.91   4.24   11  267   19  55.2  55.6 1015.1 -9.9 -9.999 -99.9 -99.99 -9.99
2019/04/20 11:42 PDT    4.02   4.31   13  264   22  55.0  55.6 1015.2 -9.9 -9.999 -99.9 -99.99 -9.99
2019/04/20 11:48 PDT    4.12   4.38   11  262   21  54.9  55.6 1015.2 -9.9 -9.999 -99.9 -99.99 -9.99
2019/04/20 11:54 PDT    4.21   4.46   14  273   22  54.7  55.6 1015.3 -9.9 -9.999 -99.9 -99.99 -9.99
2019/04/20 12:00 PDT    4.30   4.53   13  275   20  54.7  55.6 1015.3 -9.9 -9.999 -99.9 -99.99 -9.99
2019/04/20 12:06 PDT    4.39   4.61   13  270   21  54.7  55.6 1015.3 -9.9 -9.999 -99.9 -99.99 -9.99
2019/04/20 12:12 PDT    4.48   4.68   13  268   21  54.7  55.6 1015.2 -9.9 -9.999 -99.9 -99.99 -9.99
2019/04/20 12:18 PDT    4.55   4.74   10  259   21  54.9  55.6 1015.2 -9.9 -9.999 -99.9 -99.99 -9.99
2019/04/20 12:24 PDT    4.63   4.81   13  264   21  54.9  55.6 1015.3 -9.9 -9.999 -99.9 -99.99 -9.99
2019/04/20 12:30 PDT    4.70   4.86   16  264   24  54.7  55.8 1015.3 -9.9 -9.999 -99.9 -99.99 -9.99
2019/04/20 12:36 PDT    4.76   4.95   13  271   19  54.7  55.8 1015.3 -9.9 -9.999 -99.9 -99.99 -9.99
2019/04/20 12:42 PDT    4.82   5.01   14  260   22  54.7  55.6 1015.3 -9.9 -9.999 -99.9 -99.99 -9.99
2019/04/20 12:48 PDT    4.87   5.04   17  280   26  54.7  55.6 1015.4 -9.9 -9.999 -99.9 -99.99 -9.99
2019/04/20 12:54 PDT    4.92   5.11   12  268   24  54.9  55.4 1015.4 -9.9 -9.999 -99.9 -99.99 -9.99
2019/04/20 13:00 PDT    4.96   5.15   13  278   19  54.7  55.0 1015.5 -9.9 -9.999 -99.9 -99.99 -9.99
2019/04/20 13:06 PDT    4.99   5.17   12  277   19  54.7  54.9 1015.5 -9.9 -9.999 -99.9 -99.99 -9.99
2019/04/20 13:12 PDT    5.02   5.18   15  268   26  54.7  54.7 1015.5 -9.9 -9.999 -99.9 -99.99 -9.99
2019/04/20 13:18 PDT    5.04   5.22   10  263   20  55.0  54.5 1015.5 -9.9 -9.999 -99.9 -99.99 -9.99
2019/04/20 13:24 PDT    5.05   5.23   15  270   22  54.9  54.5 1015.4 -9.9 -9.999 -99.9 -99.99 -9.99
2019/04/20 13:30 PDT    5.06   5.21   11  268   21  55.2  54.3 1015.5 -9.9 -9.999 -99.9 -99.99 -9.99
2019/04/20 13:36 PDT    5.06   5.21   15  278   20  54.9  54.1 1015.6 -9.9 -9.999 -99.9 -99.99 -9.99
2019/04/20 13:42 PDT    5.05   5.21   11  275   19  54.9  54.1 1015.6 -9.9 -9.999 -99.9 -99.99 -9.99
2019/04/20 13:48 PDT    5.03   5.18   12  270   21  54.9  54.1 1015.6 -9.9 -9.999 -99.9 -99.99 -9.99
2019/04/20 13:54 PDT    5.01   5.19   14  273   21  54.7  54.1 1015.5 -9.9 -9.999 -99.9 -99.99 -9.99
2019/04/20 14:00 PDT    4.99   5.16   15  277   25  54.7  54.0 1015.5 -9.9 -9.999 -99.9 -99.99 -9.99
2019/04/20 14:06 PDT    4.95   5.15   16  275   25  54.5  54.0 1015.6 -9.9 -9.999 -99.9 -99.99 -9.99
2019/04/20 14:12 PDT    4.91   5.13   13  275   24  54.9  54.0 1015.6 -9.9 -9.999 -99.9 -99.99 -9.99
2019/04/20 14:18 PDT    4.86   5.10   14  277   23  54.9  54.0 1015.7 -9.9 -9.999 -99.9 -99.99 -9.99
2019/04/20 14:24 PDT    4.81   5.08   11  272   20  54.9  54.0 1015.6 -9.9 -9.999 -99.9 -99.99 -9.99
2019/04/20 14:30 PDT    4.75   5.05   13  279   21  54.9  54.0 1015.6 -9.9 -9.999 -99.9 -99.99 -9.99
2019/04/20 14:36 PDT    4.69   5.05   12  269   20  54.9  54.1 1015.6 -9.9 -9.999 -99.9 -99.99 -9.99
2019/04/20 14:42 PDT    4.62   4.99   11  266   20  55.0  54.1 1015.6 -9.9 -9.999 -99.9 -99.99 -9.99
2019/04/20 14:48 PDT    4.54   4.87   13  260   19  54.9  54.3 1015.5 -9.9 -9.999 -99.9 -99.99 -9.99
2019/04/20 14:54 PDT    4.46   4.79   12  258   18  55.0  54.5 1015.5 -9.9 -9.999 -99.9 -99.99 -9.99
2019/04/20 15:00 PDT    4.37   4.72   11  273   25  54.7  54.7 1015.5 -9.9 -9.999 -99.9 -99.99 -9.99
2019/04/20 15:06 PDT    4.28   4.65   12  269   21  54.5  54.9 1015.4 -9.9 -9.999 -99.9 -99.99 -9.99
2019/04/20 15:12 PDT    4.19   4.59   12  267   23  54.5  55.0 1015.3 -9.9 -9.999 -99.9 -99.99 -9.99
2019/04/20 15:18 PDT    4.09   4.52   12  274   23  54.3  55.0 1015.3 -9.9 -9.999 -99.9 -99.99 -9.99
2019/04/20 15:24 PDT    3.99   4.47   16  267   24  54.3  55.0 1015.2 -9.9 -9.999 -99.9 -99.99 -9.99
2019/04/20 15:30 PDT    3.89   4.35   13  278   23  54.3  55.0 1015.1 -9.9 -9.999 -99.9 -99.99 -9.99
2019/04/20 15:36 PDT    3.78   4.27   15  272   24  54.3  55.2 1014.9 -9.9 -9.999 -99.9 -99.99 -9.99
2019/04/20 15:42 PDT    3.67   4.16   11  276   22  54.3  55.2 1014.7 -9.9 -9.999 -99.9 -99.99 -9.99
2019/04/20 15:48 PDT    3.56   4.04   15  272   28  54.1  55.2 1014.6 -9.9 -9.999 -99.9 -99.99 -9.99
2019/04/20 15:54 PDT    3.45   3.91   14  282   27  54.1  55.2 1014.6 -9.9 -9.999 -99.9 -99.99 -9.99
2019/04/20 16:00 PDT    3.34   3.83   19  277   30  54.0  55.0 1014.7 -9.9 -9.999 -99.9 -99.99 -9.99
2019/04/20 16:06 PDT    3.22   3.73   15  276   25  54.0  55.0 1014.7 -9.9 -9.999 -99.9 -99.99 -9.99
2019/04/20 16:12 PDT    3.11   3.63   14  268   21  54.1  55.0 1014.8 -9.9 -9.999 -99.9 -99.99 -9.99
2019/04/20 16:18 PDT    3.00   3.51   10  275   19  54.1  55.0 1014.8 -9.9 -9.999 -99.9 -99.99 -9.99
2019/04/20 16:24 PDT    2.89   3.40   12  280   20  54.1  55.0 1014.7 -9.9 -9.999 -99.9 -99.99 -9.99
2019/04/20 16:30 PDT    2.78   3.29   15  277   25  54.0  55.0 1014.5 -9.9 -9.999 -99.9 -99.99 -9.99
2019/04/20 16:36 PDT    2.67   3.16   18  276   26  54.0  55.0 1014.6 -9.9 -9.999 -99.9 -99.99 -9.99
2019/04/20 16:42 PDT    2.56   3.04   14  276   26  54.0  55.4 1014.5 -9.9 -9.999 -99.9 -99.99 -9.99
2019/04/20 16:48 PDT    2.46   2.88   13  276   25  54.0  55.6 1014.5 -9.9 -9.999 -99.9 -99.99 -9.99
2019/04/20 16:54 PDT    2.36   2.79   15  282   27  53.8  55.6 1014.6 -9.9 -9.999 -99.9 -99.99 -9.99
2019/04/20 17:00 PDT    2.26   2.67   14  281   23  54.0  55.8 1014.6 -9.9 -9.999 -99.9 -99.99 -9.99
2019/04/20 17:06 PDT    2.16   2.56   12  274   22  54.1  55.9 1014.6 -9.9 -9.999 -99.9 -99.99 -9.99
2019/04/20 17:12 PDT    2.07   2.44   15  288   21  54.0  56.1 1014.5 -9.9 -9.999 -99.9 -99.99 -9.99
2019/04/20 17:18 PDT    1.99   2.37   14  281   24  53.8  56.1 1014.3 -9.9 -9.999 -99.9 -99.99 -9.99
2019/04/20 17:24 PDT    1.91   2.31   16  287   24  53.8  56.1 1014.3 -9.9 -9.999 -99.9 -99.99 -9.99
2019/04/20 17:30 PDT    1.83   2.21   12  277   27  53.8  56.1 1014.2 -9.9 -9.999 -99.9 -99.99 -9.99
2019/04/20 17:36 PDT    1.76   2.12   14  267   22  53.8  56.1 1014.2 -9.9 -9.999 -99.9 -99.99 -9.99
2019/04/20 17:42 PDT    1.69   2.05   14  273   22  53.8  56.1 1014.1 -9.9 -9.999 -99.9 -99.99 -9.99
2019/04/20 17:48 PDT    1.63   1.95   13  267   20  54.0  56.1 1014.1 -9.9 -9.999 -99.9 -99.99 -9.99
2019/04/20 17:54 PDT    1.58   1.90   17  270   27  53.8  56.1 1014.0 -9.9 -9.999 -99.9 -99.99 -9.99
2019/04/20 18:00 PDT    1.53   1.87   17  269   23  53.8  56.1 1014.1 -9.9 -9.999 -99.9 -99.99 -9.99
2019/04/20 18:06 PDT    1.49   1.83   14  258   24  53.8  56.1 1014.1 -9.9 -9.999 -99.9 -99.99 -9.99
2019/04/20 18:12 PDT    1.45   1.82   13  271   22  54.0  56.1 1014.1 -9.9 -9.999 -99.9 -99.99 -9.99
2019/04/20 18:18 PDT    1.42   1.77   10  262   21  54.1  56.1 1014.1 -9.9 -9.999 -99.9 -99.99 -9.99
2019/04/20 18:24 PDT    1.40   1.76    9  272   19  54.0  56.1 1014.0 -9.9 -9.999 -99.9 -99.99 -9.99
2019/04/20 18:30 PDT    1.38   1.71   11  273   24  53.8  56.1 1014.0 -9.9 -9.999 -99.9 -99.99 -9.99
2019/04/20 18:36 PDT    1.36   1.70   15  264   24  54.0  56.1 1014.1 -9.9 -9.999 -99.9 -99.99 -9.99
2019/04/20 18:42 PDT    1.36   1.70   16  254   24  54.0  56.1 1014.1 -9.9 -9.999 -99.9 -99.99 -9.99
2019/04/20 18:48 PDT    1.36   1.68   12  258   24  54.0  56.1 1014.4 -9.9 -9.999 -99.9 -99.99 -9.99
2019/04/20 18:54 PDT    1.36   1.70   13  260   20  54.0  56.1 1014.4 -9.9 -9.999 -99.9 -99.99 -9.99
2019/04/20 19:00 PDT    1.37   1.72   11  262   19  53.8  56.1 1014.4 -9.9 -9.999 -99.9 -99.99 -9.99
2019/04/20 19:06 PDT    1.39   1.73   13  267   18  53.6  56.1 1014.4 -9.9 -9.999 -99.9 -99.99 -9.99
2019/04/20 19:12 PDT    1.41   1.79   13  264   21  53.2  56.1 1014.4 -9.9 -9.999 -99.9 -99.99 -9.99
2019/04/20 19:18 PDT    1.44   1.84   11  268   18  53.4  55.9 1014.5 -9.9 -9.999 -99.9 -99.99 -9.99
2019/04/20 19:24 PDT    1.48   1.86    9  259   18  53.4  55.9 1014.5 -9.9 -9.999 -99.9 -99.99 -9.99
2019/04/20 19:30 PDT    1.52   1.93    8  267   15  53.4  55.8 1014.4 -9.9 -9.999 -99.9 -99.99 -9.99
2019/04/20 19:36 PDT    1.56   2.01   11  251   15  53.4  55.6 1014.2 -9.9 -9.999 -99.9 -99.99 -9.99
2019/04/20 19:42 PDT    1.61   2.09   10  258   16  53.2  55.6 1014.4 -9.9 -9.999 -99.9 -99.99 -9.99
2019/04/20 19:48 PDT    1.67   2.15    8  265   15  53.1  55.8 1014.4 -9.9 -9.999 -99.9 -99.99 -9.99
2019/04/20 19:54 PDT    1.73   2.21    9  274   15  53.1  55.8 1014.6 -9.9 -9.999 -99.9 -99.99 -9.99
2019/04/20 20:00 PDT    1.79   2.25    7  274   13  53.1  55.8 1014.8 -9.9 -9.999 -99.9 -99.99 -9.99
2019/04/20 20:06 PDT    1.86   2.31    9  290   13  53.1  55.8 1014.9 -9.9 -9.999 -99.9 -99.99 -9.99
2019/04/20 20:12 PDT    1.93   2.36   14  276   17  53.1  55.8 1014.9 -9.9 -9.999 -99.9 -99.99 -9.99
2019/04/20 20:18 PDT    2.01   2.43   11  269   17  52.9  55.8 1015.2 -9.9 -9.999 -99.9 -99.99 -9.99
2019/04/20 20:24 PDT    2.09   2.51    9  283   15  52.9  55.8 1015.4 -9.9 -9.999 -99.9 -99.99 -9.99
2019/04/20 20:30 PDT    2.18   2.61    9  251   13  52.7  55.9 1015.4 -9.9 -9.999 -99.9 -99.99 -9.99
2019/04/20 20:36 PDT    2.27   2.71    7  245   12  52.7  55.9 1015.5 -9.9 -9.999 -99.9 -99.99 -9.99
2019/04/20 20:42 PDT    2.36   2.79    8  251   12  52.9  56.1 1015.5 -9.9 -9.999 -99.9 -99.99 -9.99
2019/04/20 20:48 PDT    2.45   2.87    8  244   13  52.7  56.1 1015.5 -9.9 -9.999 -99.9 -99.99 -9.99
2019/04/20 20:54 PDT    2.55   2.95    7  248   13  52.5  56.1 1015.7 -9.9 -9.999 -99.9 -99.99 -9.99
2019/04/20 21:00 PDT    2.65   3.01    9  257   13  52.5  56.1 1015.7 -9.9 -9.999 -99.9 -99.99 -9.99
2019/04/20 21:06 PDT    2.76   3.11    9  250   15  52.3  56.1 1015.7 -9.9 -9.999 -99.9 -99.99 -9.99
2019/04/20 21:12 PDT    2.86   3.24    8  251   15  52.3  56.3 1015.8 -9.9 -9.999 -99.9 -99.99 -9.99
2019/04/20 21:18 PDT    2.97   3.33    7  263   13  52.3  56.3 1015.9 -9.9 -9.999 -99.9 -99.99 -9.99
2019/04/20 21:24 PDT    3.08   3.44    8  250   11  52.2  56.5 1015.8 -9.9 -9.999 -99.9 -99.99 -9.99
2019/04/20 21:30 PDT    3.19   3.53    7  242   10  52.2  56.5 1015.9 -9.9 -9.999 -99.9 -99.99 -9.99
2019/04/20 21:36 PDT    3.30   3.64    8  238   12  52.0  56.5 1015.9 -9.9 -9.999 -99.9 -99.99 -9.99
2019/04/20 21:42 PDT    3.42   3.77    9  249   11  52.2  56.7 1016.0 -9.9 -9.999 -99.9 -99.99 -9.99
2019/04/20 21:48 PDT    3.53   3.87    9  247   13  52.2  56.7 1016.0 -9.9 -9.999 -99.9 -99.99 -9.99
2019/04/20 21:54 PDT    3.64   3.97   10  252   13  52.2  56.7 1016.0 -9.9 -9.999 -99.9 -99.99 -9.99
2019/04/20 22:00 PDT    3.76   4.07   10  251   13  52.0  56.7 1016.2 -9.9 -9.999 -99.9 -99.99 -9.99
2019/04/20 22:06 PDT    3.87   4.17    8  250   14  52.0  56.7 1016.2 -9.9 -9.999 -99.9 -99.99 -9.99
2019/04/20 22:12 PDT    3.98   4.28    7  240   13  51.8  56.7 1016.3 -9.9 -9.999 -99.9 -99.99 -9.99
2019/04/20 22:18 PDT    4.10   4.37   10  240   14  51.8  56.7 1016.3 -9.9 -9.999 -99.9 -99.99 -9.99
2019/04/20 22:24 PDT    4.21   4.46   11  248   16  52.0  56.7 1016.3 -9.9 -9.999 -99.9 -99.99 -9.99
2019/04/20 22:30 PDT    4.32   4.59    9  242   13  52.2  56.5 1016.4 -9.9 -9.999 -99.9 -99.99 -9.99
2019/04/20 22:36 PDT    4.43   4.72    7  245   12  52.0  56.5 1016.4 -9.9 -9.999 -99.9 -99.99 -9.99
2019/04/20 22:42 PDT    4.53   4.82    9  242   13  52.0  56.5 1016.5 -9.9 -9.999 -99.9 -99.99 -9.99
2019/04/20 22:48 PDT    4.64   4.91    8  243   11  51.8  56.5 1016.4 -9.9 -9.999 -99.9 -99.99 -9.99
2019/04/20 22:54 PDT    4.74   5.01    8  249   12  51.8  56.5 1016.4 -9.9 -9.999 -99.9 -99.99 -9.99
2019/04/20 23:00 PDT    4.84   5.09    8  245   12  51.6  56.5 1016.5 -9.9 -9.999 -99.9 -99.99 -9.99
2019/04/20 23:06 PDT    4.94   5.20    8  243   12  51.6  56.3 1016.4 -9.9 -9.999 -99.9 -99.99 -9.99
2019/04/20 23:12 PDT    5.04   5.26    7  249   10  51.4  54.9 1016.4 -9.9 -9.999 -99.9 -99.99 -9.99
2019/04/20 23:18 PDT    5.13   5.34    8  246   12  51.4  54.7 1016.5 -9.9 -9.999 -99.9 -99.99 -9.99
2019/04/20 23:24 PDT    5.23   5.43    7  250   11  51.4  54.7 1016.7 -9.9 -9.999 -99.9 -99.99 -9.99
2019/04/20 23:30 PDT    5.31   5.57    5  291    7  51.4  54.5 1016.7 -9.9 -9.999 -99.9 -99.99 -9.99
2019/04/20 23:36 PDT    5.40   5.68    6  253    9  51.3  54.5 1016.8 -9.9 -9.999 -99.9 -99.99 -9.99
2019/04/20 23:42 PDT    5.48   5.77    5  232    9  51.3  54.5 1016.8 -9.9 -9.999 -99.9 -99.99 -9.99
2019/04/20 23:48 PDT    5.56   5.82    6  227    8  51.3  54.5 1016.7 -9.9 -9.999 -99.9 -99.99 -9.99
2019/04/20 23:54 PDT    5.63   5.85    4  202    6  51.1  54.5 1016.8 -9.9 -9.999 -99.9 -99.99 -9.99
2019/04/21 00:00 PDT    5.70   5.91    4  199    5  50.9  54.5 1016.7 -9.9 -9.999 -99.9 -99.99 -9.99
2019/04/21 00:06 PDT    5.76   5.98    5  198    5  50.7  54.5 1016.7 -9.9 -9.999 -99.9 -99.99 -9.99
2019/04/21 00:12 PDT    5.83   6.05    5  201    6  50.5  54.5 1016.7 -9.9 -9.999 -99.9 -99.99 -9.99
2019/04/21 00:18 PDT    5.88   6.09    5  202    6  50.5  54.3 1016.8 -9.9 -9.999 -99.9 -99.99 -9.99
2019/04/21 00:24 PDT    5.93   6.13    4  211    6  50.4  54.3 1016.9 -9.9 -9.999 -99.9 -99.99 -9.99
2019/04/21 00:30 PDT    5.97   6.19    4  198    4  50.4  54.5 1017.0 -9.9 -9.999 -99.9 -99.99 -9.99
2019/04/21 00:36 PDT    6.01   6.22    4  205    5  50.0  54.7 1017.1 -9.9 -9.999 -99.9 -99.99 -9.99
2019/04/21 00:42 PDT    6.05   6.25    4  208    5  50.0  54.7 1017.2 -9.9 -9.999 -99.9 -99.99 -9.99
2019/04/21 00:48 PDT    6.07   6.29    3  208    4  50.2  54.7 1017.2 -9.9 -9.999 -99.9 -99.99 -9.99
2019/04/21 00:54 PDT    6.09   6.28    4  208    4  50.0  54.5 1017.3 -9.9 -9.999 -99.9 -99.99 -9.99
2019/04/21 01:00 PDT    6.11   6.30    4  211    5  50.0  54.7 1017.3 -9.9 -9.999 -99.9 -99.99 -9.99
2019/04/21 01:06 PDT    6.11   6.27    4  196    5  49.8  54.7 1017.3 -9.9 -9.999 -99.9 -99.99 -9.99
2019/04/21 01:12 PDT    6.11   6.29    4  201    4  49.8  54.7 1017.4 -9.9 -9.999 -99.9 -99.99 -9.99
2019/04/21 01:18 PDT    6.10   6.27    4  203    4  49.6  54.7 1017.4 -9.9 -9.999 -99.9 -99.99 -9.99
2019/04/21 01:24 PDT    6.09   6.26    4  207    4  49.6  54.5 1017.4 -9.9 -9.999 -99.9 -99.99 -9.99
2019/04/21 01:30 PDT    6.07   6.21    4  203    5  49.6  54.5 1017.5 -9.9 -9.999 -99.9 -99.99 -9.99
2019/04/21 01:36 PDT    6.04   6.18    4  211    5  49.6  54.5 1017.5 -9.9 -9.999 -99.9 -99.99 -9.99
2019/04/21 01:42 PDT    6.00   6.14    4  217    5  49.6  54.5 1017.5 -9.9 -9.999 -99.9 -99.99 -9.99
2019/04/21 01:48 PDT    5.95   6.10    4  207    5  49.8  54.5 1017.6 -9.9 -9.999 -99.9 -99.99 -9.99
2019/04/21 01:54 PDT    5.90   6.03    3  201    4  49.6  54.3 1017.6 -9.9 -9.999 -99.9 -99.99 -9.99
2019/04/21 02:00 PDT    5.84   5.99    5  203    6  49.5  54.1 1017.6 -9.9 -9.999 -99.9 -99.99 -9.99
2019/04/21 02:06 PDT    5.77   5.92    4  216    6  49.5  54.1 1017.6 -9.9 -9.999 -99.9 -99.99 -9.99
2019/04/21 02:12 PDT    5.69   5.84    4  210    6  49.6  54.1 1017.6 -9.9 -9.999 -99.9 -99.99 -9.99
2019/04/21 02:18 PDT    5.61   5.78    4  209    5  49.6  54.1 1017.7 -9.9 -9.999 -99.9 -99.99 -9.99
2019/04/21 02:24 PDT    5.52   5.68    4  206    6  49.5  54.0 1017.7 -9.9 -9.999 -99.9 -99.99 -9.99
2019/04/21 02:30 PDT    5.42   5.59    4  203    5  49.3  53.8 1017.7 -9.9 -9.999 -99.9 -99.99 -9.99
2019/04/21 02:36 PDT    5.31   5.51    4  195    5  49.3  53.6 1017.8 -9.9 -9.999 -99.9 -99.99 -9.99
2019/04/21 02:42 PDT    5.20   5.40    3  180    4  49.1  53.4 1017.8 -9.9 -9.999 -99.9 -99.99 -9.99
2019/04/21 02:48 PDT    5.08   5.27    4  186    4  49.1  53.4 1017.8 -9.9 -9.999 -99.9 -99.99 -9.99
2019/04/21 02:54 PDT    4.95   5.16    3  192    4  48.9  53.6 1017.8 -9.9 -9.999 -99.9 -99.99 -9.99
2019/04/21 03:00 PDT    4.82   5.02    3  196    3  49.1  53.4 1017.9 -9.9 -9.999 -99.9 -99.99 -9.99
2019/04/21 03:06 PDT    4.69   4.90    3  193    3  49.1  53.6 1018.0 -9.9 -9.999 -99.9 -99.99 -9.99
2019/04/21 03:12 PDT    4.54   4.75    3  195    3  48.9  53.6 1018.0 -9.9 -9.999 -99.9 -99.99 -9.99
2019/04/21 03:18 PDT    4.40   4.59    3  206    3  48.9  53.6 1018.1 -9.9 -9.999 -99.9 -99.99 -9.99
2019/04/21 03:24 PDT    4.24   4.44    3  202    3  48.9  53.4 1018.2 -9.9 -9.999 -99.9 -99.99 -9.99
2019/04/21 03:30 PDT    4.09   4.27    3  194    4  48.9  53.6 1018.3 -9.9 -9.999 -99.9 -99.99 -9.99
2019/04/21 03:36 PDT    3.93   4.09    3  196    3  48.7  53.6 1018.4 -9.9 -9.999 -99.9 -99.99 -9.99
2019/04/21 03:42 PDT    3.76   3.89    3  198    3  48.7  53.8 1018.4 -9.9 -9.999 -99.9 -99.99 -9.99
2019/04/21 03:48 PDT    3.60   3.70    3  199    4  48.7  53.8 1018.5 -9.9 -9.999 -99.9 -99.99 -9.99
2019/04/21 03:54 PDT    3.43   3.47    2  211    3  48.9  53.8 1018.5 -9.9 -9.999 -99.9 -99.99 -9.99
2019/04/21 04:00 PDT    3.25   3.23    2  202    2  48.9  54.0 1018.5 -9.9 -9.999 -99.9 -99.99 -9.99
2019/04/21 04:06 PDT    3.08   3.04    3  202    3  49.1  54.1 1018.5 -9.9 -9.999 -99.9 -99.99 -9.99
2019/04/21 04:12 PDT    2.91   2.86    3  204    3  49.3  54.1 1018.5 -9.9 -9.999 -99.9 -99.99 -9.99
2019/04/21 04:18 PDT    2.73   2.66    2  218    3  49.3  54.1 1018.5 -9.9 -9.999 -99.9 -99.99 -9.99
2019/04/21 04:24 PDT    2.56   2.51    2  217    3  49.1  54.1 1018.6 -9.9 -9.999 -99.9 -99.99 -9.99
2019/04/21 04:30 PDT    2.38   2.36    1  219    2  49.1  54.3 1018.6 -9.9 -9.999 -99.9 -99.99 -9.99
2019/04/21 04:36 PDT    2.21   2.17    2  217    2  49.1  54.3 1018.6 -9.9 -9.999 -99.9 -99.99 -9.99
2019/04/21 04:42 PDT    2.04   2.00    3  206    3  49.5  54.3 1018.5 -9.9 -9.999 -99.9 -99.99 -9.99
2019/04/21 04:48 PDT    1.87   1.81    3  222    3  49.3  54.1 1018.6 -9.9 -9.999 -99.9 -99.99 -9.99
2019/04/21 04:54 PDT    1.70   1.62    2  224    3  49.3  54.1 1018.7 -9.9 -9.999 -99.9 -99.99 -9.99
2019/04/21 05:00 PDT    1.53   1.43    2  212    3  49.6  54.1 1018.8 -9.9 -9.999 -99.9 -99.99 -9.99
2019/04/21 05:06 PDT    1.37   1.27    4  210    4  49.6  54.1 1018.8 -9.9 -9.999 -99.9 -99.99 -9.99
2019/04/21 05:12 PDT    1.21   1.10    3  229    3  49.6  54.0 1018.9 -9.9 -9.999 -99.9 -99.99 -9.99
2019/04/21 05:18 PDT    1.05   0.96    3  201    3  49.6  54.0 1018.9 -9.9 -9.999 -99.9 -99.99 -9.99
2019/04/21 05:24 PDT    0.90   0.82    4  208    4  49.5  53.8 1018.9 -9.9 -9.999 -99.9 -99.99 -9.99
2019/04/21 05:30 PDT    0.76   0.66    3  205    4  49.1  53.8 1019.0 -9.9 -9.999 -99.9 -99.99 -9.99
2019/04/21 05:36 PDT    0.62   0.53    3  191    4  49.3  53.6 1019.0 -9.9 -9.999 -99.9 -99.99 -9.99
2019/04/21 05:42 PDT    0.48   0.42    3  200    4  49.1  53.6 1019.1 -9.9 -9.999 -99.9 -99.99 -9.99
2019/04/21 05:48 PDT    0.35   0.31    2  204    3  49.1  53.6 1019.2 -9.9 -9.999 -99.9 -99.99 -9.99
2019/04/21 05:54 PDT    0.23   0.20    2  214    2  48.7  53.8 1019.3 -9.9 -9.999 -99.9 -99.99 -9.99
2019/04/21 06:00 PDT    0.12   0.11    2  179    3  48.6  53.8 1019.3 -9.9 -9.999 -99.9 -99.99 -9.99
2019/04/21 06:06 PDT    0.01   0.03    3  197    3  48.6  53.8 1019.3 -9.9 -9.999 -99.9 -99.99 -9.99
2019/04/21 06:12 PDT   -0.10  -0.07    2  207    3  48.6  53.8 1019.3 -9.9 -9.999 -99.9 -99.99 -9.99
2019/04/21 06:18 PDT   -0.19  -0.14    2  218    2  48.7  53.8 1019.3 -9.9 -9.999 -99.9 -99.99 -9.99
2019/04/21 06:24 PDT   -0.28  -0.23    2  210    3  48.7  53.8 1019.3 -9.9 -9.999 -99.9 -99.99 -9.99
2019/04/21 06:30 PDT   -0.36  -0.31    2  216    3  48.9  53.6 1019.4 -9.9 -9.999 -99.9 -99.99 -9.99
2019/04/21 06:36 PDT   -0.44  -0.38    2  216    3  48.9  53.6 1019.5 -9.9 -9.999 -99.9 -99.99 -9.99
2019/04/21 06:42 PDT   -0.50  -0.41    2  211    3  48.7  53.8 1019.5 -9.9 -9.999 -99.9 -99.99 -9.99
2019/04/21 06:48 PDT   -0.56  -0.47    3  222    4  48.9  53.8 1019.6 -9.9 -9.999 -99.9 -99.99 -9.99
2019/04/21 06:54 PDT   -0.62  -0.53    2  224    4  49.1  53.6 1019.6 -9.9 -9.999 -99.9 -99.99 -9.99
2019/04/21 07:00 PDT   -0.66  -0.60    2  212    3  49.5  53.8 1019.6 -9.9 -9.999 -99.9 -99.99 -9.99
2019/04/21 07:06 PDT   -0.70  -0.63    2  211    3  49.8  53.8 1019.6 -9.9 -9.999 -99.9 -99.99 -9.99
2019/04/21 07:12 PDT   -0.73  -0.66    2  208    3  50.4  54.3 1019.7 -9.9 -9.999 -99.9 -99.99 -9.99
2019/04/21 07:18 PDT   -0.75  -0.64    2  203    2  50.7  54.5 1019.8 -9.9 -9.999 -99.9 -99.99 -9.99
2019/04/21 07:24 PDT   -0.77  -0.60    1  184    2  51.3  55.2 1019.9 -9.9 -9.999 -99.9 -99.99 -9.99
2019/04/21 07:30 PDT   -0.78  -0.60    2  222    4  51.6  55.4 1020.1 -9.9 -9.999 -99.9 -99.99 -9.99
2019/04/21 07:36 PDT   -0.78  -0.63    4  238    6  51.8  55.6 1020.1 -9.9 -9.999 -99.9 -99.99 -9.99
2019/04/21 07:42 PDT   -0.77  -0.60    4  213    5  52.0  55.6 1020.1 -9.9 -9.999 -99.9 -99.99 -9.99
2019/04/21 07:48 PDT   -0.76  -0.60    5  213    7  52.2  55.6 1020.1 -9.9 -9.999 -99.9 -99.99 -9.99
2019/04/21 07:54 PDT   -0.74  -0.56    4  230    6  52.5  55.6 1020.1 -9.9 -9.999 -99.9 -99.99 -9.99
2019/04/21 08:00 PDT   -0.72  -0.51    4  222    6  52.7  55.8 1020.1 -9.9 -9.999 -99.9 -99.99 -9.99
2019/04/21 08:06 PDT   -0.69  -0.45    5  215    7  52.5  55.9 1020.1 -9.9 -9.999 -99.9 -99.99 -9.99
2019/04/21 08:12 PDT   -0.65  -0.40    4  232    7  52.5  55.9 1020.1 -9.9 -9.999 -99.9 -99.99 -9.99
2019/04/21 08:18 PDT   -0.61  -0.37    4  213    7  52.9  55.9 1020.2 -9.9 -9.999 -99.9 -99.99 -9.99
2019/04/21 08:24 PDT   -0.56  -0.34    4  237    7  52.9  56.1 1020.2 -9.9 -9.999 -99.9 -99.99 -9.99
2019/04/21 08:30 PDT   -0.50  -0.29    5  241    7  52.9  56.1 1020.3 -9.9 -9.999 -99.9 -99.99 -9.99
2019/04/21 08:36 PDT   -0.44  -0.23    4  244    6  53.2  56.3 1020.3 -9.9 -9.999 -99.9 -99.99 -9.99
2019/04/21 08:42 PDT   -0.38  -0.18    6  238    8  53.1  56.7 1020.4 -9.9 -9.999 -99.9 -99.99 -9.99
2019/04/21 08:48 PDT   -0.31  -0.12    5  252    7  53.2  56.7 1020.2 -9.9 -9.999 -99.9 -99.99 -9.99
2019/04/21 08:54 PDT   -0.23  -0.05    4  252    6  53.6  56.8 1020.2 -9.9 -9.999 -99.9 -99.99 -9.99
2019/04/21 09:00 PDT   -0.15  -0.00    4  276    7  53.6  56.8 1020.2 -9.9 -9.999 -99.9 -99.99 -9.99
2019/04/21 09:06 PDT   -0.07   0.06    5  294    6  53.8  56.8 1020.2 -9.9 -9.999 -99.9 -99.99 -9.99
2019/04/21 09:12 PDT    0.02   0.11    5  310    6  53.8  57.2 1020.2 -9.9 -9.999 -99.9 -99.99 -9.99
2019/04/21 09:18 PDT    0.12   0.20    7  302    8  53.8  57.7 1020.3 -9.9 -9.999 -99.9 -99.99 -9.99
2019/04/21 09:24 PDT    0.21   0.30    7  289    9  53.6  57.7 1020.4 -9.9 -9.999 -99.9 -99.99 -9.99
2019/04/21 09:30 PDT    0.31   0.38    5  271    9  54.0  57.9 1020.4 -9.9 -9.999 -99.9 -99.99 -9.99
2019/04/21 09:36 PDT    0.41   0.47    5  292    8  54.1  57.9 1020.4 -9.9 -9.999 -99.9 -99.99 -9.99
2019/04/21 09:42 PDT    0.52   0.57    7  291    9  54.0  57.9 1020.5 -9.9 -9.999 -99.9 -99.99 -9.99
2019/04/21 09:48 PDT    0.63   0.70    5  262   10  54.3  58.1 1020.5 -9.9 -9.999 -99.9 -99.99 -9.99
2019/04/21 09:54 PDT    0.74   0.81    7  254    9  54.3  58.1 1020.6 -9.9 -9.999 -99.9 -99.99 -9.99
2019/04/21 10:00 PDT    0.85   0.89    5  270    8  54.7  58.1 1020.5 -9.9 -9.999 -99.9 -99.99 -9.99
2019/04/21 10:06 PDT    0.97   1.01    6  278    8  55.0  58.3 1020.5 -9.9 -9.999 -99.9 -99.99 -9.99
2019/04/21 10:12 PDT    1.08   1.10    6  265    9  55.0  58.3 1020.5 -9.9 -9.999 -99.9 -99.99 -9.99
2019/04/21 10:18 PDT    1.20   1.22    5  262    9  55.4  58.3 1020.5 -9.9 -9.999 -99.9 -99.99 -9.99
2019/04/21 10:24 PDT    1.32   1.31    6  279    9  55.4  58.3 1020.4 -9.9 -9.999 -99.9 -99.99 -9.99
2019/04/21 10:30 PDT    1.44   1.44    7  277    9  55.0  58.3 1020.4 -9.9 -9.999 -99.9 -99.99 -9.99
2019/04/21 10:36 PDT    1.56   1.59    8  288   11  54.7  58.3 1020.5 -9.9 -9.999 -99.9 -99.99 -9.99
2019/04/21 10:42 PDT    1.68   1.75    9  285   11  54.5  58.3 1020.5 -9.9 -9.999 -99.9 -99.99 -9.99
2019/04/21 10:48 PDT    1.80   1.88    9  286   11  54.3  58.3 1020.5 -9.9 -9.999 -99.9 -99.99 -9.99
2019/04/21 10:54 PDT    1.92   1.98    8  278   11  54.5  58.3 1020.5 -9.9 -9.999 -99.9 -99.99 -9.99
2019/04/21 11:00 PDT    2.04   2.09    8  279   11  54.5  58.5 1020.5 -9.9 -9.999 -99.9 -99.99 -9.99
2019/04/21 11:06 PDT    2.17   2.21    9  271   12  54.3  58.5 1020.6 -9.9 -9.999 -99.9 -99.99 -9.99
2019/04/21 11:12 PDT    2.29   2.30    7  259   13  54.7  58.3 1020.5 -9.9 -9.999 -99.9 -99.99 -9.99
2019/04/21 11:18 PDT    2.41   2.44    7  261   13  54.7  58.3 1020.5 -9.9 -9.999 -99.9 -99.99 -9.99
2019/04/21 11:24 PDT    2.53   2.57    8  268   12  54.9  58.3 1020.5 -9.9 -9.999 -99.9 -99.99 -9.99
2019/04/21 11:30 PDT    2.64   2.67    9  269   12  54.7  57.9 1020.5 -9.9 -9.999 -99.9 -99.99 -9.99
2019/04/21 11:36 PDT    2.76   2.74    8  261   14  54.5  57.4 1020.5 -9.9 -9.999 -99.9 -99.99 -9.99
2019/04/21 11:42 PDT    2.88   2.85   10  244   13  54.5  57.4 1020.6 -9.9 -9.999 -99.9 -99.99 -9.99
2019/04/21 11:48 PDT    2.99   2.98    9  263   13  54.7  57.4 1020.7 -9.9 -9.999 -99.9 -99.99 -9.99
2019/04/21 11:54 PDT    3.11   3.11    8  247   14  54.7  57.6 1020.7 -9.9 -9.999 -99.9 -99.99 -9.99
2019/04/21 12:00 PDT    3.22   3.20   10  251   15  54.5  57.4 1020.6 -9.9 -9.999 -99.9 -99.99 -9.99
2019/04/21 12:06 PDT    3.33   3.30    8  242   14  54.9  57.4 1020.6 -9.9 -9.999 -99.9 -99.99 -9.99
2019/04/21 12:12 PDT    3.44   3.42   14  236   17  54.3  56.7 1020.6 -9.9 -9.999 -99.9 -99.99 -9.99
2019/04/21 12:18 PDT    3.54   3.52   12  242   16  54.9  56.3 1020.7 -9.9 -9.999 -99.9 -99.99 -9.99
2019/04/21 12:24 PDT    3.64   3.62   11  242   16  55.0  55.9 1020.7 -9.9 -9.999 -99.9 -99.99 -9.99
2019/04/21 12:30 PDT    3.74   3.68   12  256   17  55.0  55.9 1020.7 -9.9 -9.999 -99.9 -99.99 -9.99
2019/04/21 12:36 PDT    3.84   3.75   11  253   16  54.7  56.5 1020.8 -9.9 -9.999 -99.9 -99.99 -9.99
2019/04/21 12:42 PDT    3.93   3.80   12  244   17  55.0  56.8 1020.7 -9.9 -9.999 -99.9 -99.99 -9.99
2019/04/21 12:48 PDT    4.02   3.89    9  261   18  55.6  56.8 1020.6 -9.9 -9.999 -99.9 -99.99 -9.99
2019/04/21 12:54 PDT    4.11   3.99   10  257   17  55.8  56.8 1020.5 -9.9 -9.999 -99.9 -99.99 -9.99
2019/04/21 13:00 PDT    4.19   4.11   12  250   18  55.9  56.7 1020.5 -9.9 -9.999 -99.9 -99.99 -9.99
2019/04/21 13:06 PDT    4.27   4.21   12  253   18  55.9  56.5 1020.5 -9.9 -9.999 -99.9 -99.99 -9.99
2019/04/21 13:12 PDT    4.35   4.31    9  262   17  56.1  56.3 1020.5 -9.9 -9.999 -99.9 -99.99 -9.99
2019/04/21 13:18 PDT    4.42   4.39   11  263   19  56.7  55.9 1020.4 -9.9 -9.999 -99.9 -99.99 -9.99
2019/04/21 13:24 PDT    4.48   4.44   11  263   16  56.5  55.8 1020.4 -9.9 -9.999 -99.9 -99.99 -9.99
2019/04/21 13:30 PDT    4.54   4.49   10  245   15  57.0  55.8 1020.4 -9.9 -9.999 -99.9 -99.99 -9.99
2019/04/21 13:36 PDT    4.60   4.54    9  257   15  57.4  55.8 1020.3 -9.9 -9.999 -99.9 -99.99 -9.99
2019/04/21 13:42 PDT    4.65   4.59    9  247   16  57.4  55.8 1020.3 -9.9 -9.999 -99.9 -99.99 -9.99
2019/04/21 13:48 PDT    4.69   4.66    9  253   15  57.2  55.8 1020.3 -9.9 -9.999 -99.9 -99.99 -9.99
2019/04/21 13:54 PDT    4.73   4.71   10  260   15  57.0  55.6 1020.3 -9.9 -9.999 -99.9 -99.99 -9.99
2019/04/21 14:00 PDT    4.76   4.74   11  264   16  57.2  54.9 1020.2 -9.9 -9.999 -99.9 -99.99 -9.99
2019/04/21 14:06 PDT    4.79   4.80   10  248   16  57.4  54.9 1020.1 -9.9 -9.999 -99.9 -99.99 -9.99
2019/04/21 14:12 PDT    4.81   4.83   10  256   16  57.2  54.9 1020.1 -9.9 -9.999 -99.9 -99.99 -9.99
2019/04/21 14:18 PDT    4.82   4.85   10  241   16  57.6  55.8 1019.9 -9.9 -9.999 -99.9 -99.99 -9.99
2019/04/21 14:24 PDT    4.83   4.84   12  239   14  57.4  54.9 1019.9 -9.9 -9.999 -99.9 -99.99 -9.99
2019/04/21 14:30 PDT    4.83   4.86   11  242   17  57.2  54.9 1019.9 -9.9 -9.999 -99.9 -99.99 -9.99
2019/04/21 14:36 PDT    4.83   4.86   10  258   18  57.4  54.7 1020.0 -9.9 -9.999 -99.9 -99.99 -9.99
2019/04/21 14:42 PDT    4.82   4.86   11  264   17  57.0  54.7 1020.0 -9.9 -9.999 -99.9 -99.99 -9.99
2019/04/21 14:48 PDT    4.80   4.87   10  254   19  57.2  54.5 1019.8 -9.9 -9.999 -99.9 -99.99 -9.99
2019/04/21 14:54 PDT    4.78   4.87   10  245   16  57.7  54.3 1019.7 -9.9 -9.999 -99.9 -99.99 -9.99
2019/04/21 15:00 PDT    4.75   4.83   10  241   19  57.7  54.3 1019.7 -9.9 -9.999 -99.9 -99.99 -9.99
2019/04/21 15:06 PDT    4.72   4.81   10  242   14  57.6  54.3 1019.7 -9.9 -9.999 -99.9 -99.99 -9.99
2019/04/21 15:12 PDT    4.68   4.76    9  247   15  57.6  54.3 1019.7 -9.9 -9.999 -99.9 -99.99 -9.99
2019/04/21 15:18 PDT    4.64   4.72   13  232   17  57.0  54.1 1019.6 -9.9 -9.999 -99.9 -99.99 -9.99
2019/04/21 15:24 PDT    4.59   4.68   11  239   17  56.8  54.0 1019.5 -9.9 -9.999 -99.9 -99.99 -9.99
2019/04/21 15:30 PDT    4.53   4.64    9  234   16  57.0  54.0 1019.4 -9.9 -9.999 -99.9 -99.99 -9.99
2019/04/21 15:36 PDT    4.47   4.60   10  230   14  57.0  53.6 1019.3 -9.9 -9.999 -99.9 -99.99 -9.99
2019/04/21 15:42 PDT    4.41   4.56    8  245   16  57.0  53.4 1019.2 -9.9 -9.999 -99.9 -99.99 -9.99
2019/04/21 15:48 PDT    4.34   4.50    8  229   16  57.4  53.2 1019.2 -9.9 -9.999 -99.9 -99.99 -9.99
2019/04/21 15:54 PDT    4.27   4.38    9  236   15  57.0  53.1 1019.2 -9.9 -9.999 -99.9 -99.99 -9.99
2019/04/21 16:00 PDT    4.19   4.30   10  234   17  57.0  52.9 1019.2 -9.9 -9.999 -99.9 -99.99 -9.99
2019/04/21 16:06 PDT    4.11   4.24   10  249   15  56.7  52.9 1019.2 -9.9 -9.999 -99.9 -99.99 -9.99
2019/04/21 16:12 PDT    4.03   4.20   10  246   17  56.7  52.7 1019.2 -9.9 -9.999 -99.9 -99.99 -9.99
2019/04/21 16:18 PDT    3.95   4.17    9  234   15  56.7  52.7 1019.1 -9.9 -9.999 -99.9 -99.99 -9.99
2019/04/21 16:24 PDT    3.86   4.11   10  231   17  56.3  52.7 1019.0 -9.9 -9.999 -99.9 -99.99 -9.99
2019/04/21 16:30 PDT    3.77   3.98   11  233   16  56.5  52.5 1019.0 -9.9 -9.999 -99.9 -99.99 -9.99
2019/04/21 16:36 PDT    3.68   3.88    8  233   16  56.7  52.7 1019.0 -9.9 -9.999 -99.9 -99.99 -9.99
2019/04/21 16:42 PDT    3.59   3.83   10  246   15  56.5  52.7 1019.0 -9.9 -9.999 -99.9 -99.99 -9.99
2019/04/21 16:48 PDT    3.49   3.75   11  238   16  56.7  53.2 1019.0 -9.9 -9.999 -99.9 -99.99 -9.99
2019/04/21 16:54 PDT    3.40   3.68    9  230   17  56.1  53.6 1019.0 -9.9 -9.999 -99.9 -99.99 -9.99
2019/04/21 17:00 PDT    3.31   3.59    9  223   14  56.3  54.7 1019.0 -9.9 -9.999 -99.9 -99.99 -9.99
2019/04/21 17:06 PDT    3.21   3.53   12  226   17  56.1  54.9 1018.9 -9.9 -9.999 -99.9 -99.99 -9.99
2019/04/21 17:12 PDT    3.12   3.38   13  241   19  55.4  55.2 1018.9 -9.9 -9.999 -99.9 -99.99 -9.99
2019/04/21 17:18 PDT    3.03   3.29    9  239   19  55.4  55.4 1018.9 -9.9 -9.999 -99.9 -99.99 -9.99
2019/04/21 17:24 PDT    2.94   3.18   11  235   17  55.4  55.6 1018.8 -9.9 -9.999 -99.9 -99.99 -9.99
2019/04/21 17:30 PDT    2.85   3.07   11  237   17  55.2  55.8 1018.8 -9.9 -9.999 -99.9 -99.99 -9.99
2019/04/21 17:36 PDT    2.77   3.00   13  235   17  55.0  56.1 1018.8 -9.9 -9.999 -99.9 -99.99 -9.99
2019/04/21 17:42 PDT    2.68   2.93   11  224   17  54.9  56.5 1018.8 -9.9 -9.999 -99.9 -99.99 -9.99
2019/04/21 17:48 PDT    2.60   2.80   14  236   17  54.7  56.7 1018.7 -9.9 -9.999 -99.9 -99.99 -9.99
2019/04/21 17:54 PDT    2.52   2.68   12  238   20  54.9  56.8 1018.6 -9.9 -9.999 -99.9 -99.99 -9.99
2019/04/21 18:00 PDT    2.45   2.58   10  236   17  55.0  57.0 1018.6 -9.9 -9.999 -99.9 -99.99 -9.99
2019/04/21 18:06 PDT    2.38   2.48   12  232   16  55.2  57.0 1018.5 -9.9 -9.999 -99.9 -99.99 -9.99
2019/04/21 18:12 PDT    2.31   2.43   11  229   18  55.4  57.0 1018.5 -9.9 -9.999 -99.9 -99.99 -9.99
2019/04/21 18:18 PDT    2.25   2.39   12  233   17  55.2  56.8 1018.5 -9.9 -9.999 -99.9 -99.99 -9.99
2019/04/21 18:24 PDT    2.19   2.35   14  234   21  55.0  57.0 1018.4 -9.9 -9.999 -99.9 -99.99 -9.99
2019/04/21 18:30 PDT    2.14   2.31   12  233   17  55.2  57.0 1018.4 -9.9 -9.999 -99.9 -99.99 -9.99
2019/04/21 18:36 PDT    2.09   2.22   12  225   19  55.0  57.0 1018.3 -9.9 -9.999 -99.9 -99.99 -9.99
2019/04/21 18:42 PDT    2.05   2.17   11  228   16  55.0  57.0 1018.2 -9.9 -9.999 -99.9 -99.99 -9.99
2019/04/21 18:48 PDT    2.01   2.14   13  219   18  54.9  57.0 1018.2 -9.9 -9.999 -99.9 -99.99 -9.99
2019/04/21 18:54 PDT    1.98   2.12   12  224   18  54.7  56.8 1018.1 -9.9 -9.999 -99.9 -99.99 -9.99
2019/04/21 19:00 PDT    1.95   2.08   14  224   21  54.5  56.8 1018.2 -9.9 -9.999 -99.9 -99.99 -9.99
2019/04/21 19:06 PDT    1.92   2.07   13  220   18  54.5  56.7 1018.2 -9.9 -9.999 -99.9 -99.99 -9.99
2019/04/21 19:12 PDT    1.91   2.06   12  231   19  54.5  56.3 1018.2 -9.9 -9.999 -99.9 -99.99 -9.99
2019/04/21 19:18 PDT    1.89   2.06   12  223   15  54.3  56.1 1018.2 -9.9 -9.999 -99.9 -99.99 -9.99
2019/04/21 19:24 PDT    1.89   2.08   13  223   18  54.1  55.9 1018.2 -9.9 -9.999 -99.9 -99.99 -9.99
2019/04/21 19:30 PDT    1.88   2.12   11  235   17  54.1  55.9 1018.2 -9.9 -9.999 -99.9 -99.99 -9.99
2019/04/21 19:36 PDT    1.89   2.17    9  229   17  54.0  55.9 1018.3 -9.9 -9.999 -99.9 -99.99 -9.99
2019/04/21 19:42 PDT    1.89   2.18   12  224   14  54.0  55.9 1018.2 -9.9 -9.999 -99.9 -99.99 -9.99
2019/04/21 19:48 PDT    1.91   2.20   13  222   17  53.8  55.6 1018.3 -9.9 -9.999 -99.9 -99.99 -9.99
2019/04/21 19:54 PDT    1.93   2.22   12  230   16  53.8  55.6 1018.2 -9.9 -9.999 -99.9 -99.99 -9.99
2019/04/21 20:00 PDT    1.95   2.24   13  237   17  53.6  55.4 1018.1 -9.9 -9.999 -99.9 -99.99 -9.99
2019/04/21 20:06 PDT    1.98   2.25   13  243   17  53.4  55.6 1018.2 -9.9 -9.999 -99.9 -99.99 -9.99
2019/04/21 20:12 PDT    2.01   2.29   14  243   17  53.6  55.4 1018.1 -9.9 -9.999 -99.9 -99.99 -9.99
2019/04/21 20:18 PDT    2.05   2.36   13  249   18  53.6  55.4 1018.2 -9.9 -9.999 -99.9 -99.99 -9.99
2019/04/21 20:24 PDT    2.09   2.44   13  243   18  53.2  55.6 1018.3 -9.9 -9.999 -99.9 -99.99 -9.99
2019/04/21 20:30 PDT    2.13   2.50   14  247   18  53.2  55.4 1018.4 -9.9 -9.999 -99.9 -99.99 -9.99
2019/04/21 20:36 PDT    2.18   2.55   13  241   17  53.1  55.6 1018.4 -9.9 -9.999 -99.9 -99.99 -9.99
2019/04/21 20:42 PDT    2.24   2.60   13  245   18  52.9  55.6 1018.4 -9.9 -9.999 -99.9 -99.99 -9.99
2019/04/21 20:48 PDT    2.30   2.64   11  243   18  52.9  55.6 1018.6 -9.9 -9.999 -99.9 -99.99 -9.99
2019/04/21 20:54 PDT    2.36   2.69    9  233   14  52.9  55.6 1018.6 -9.9 -9.999 -99.9 -99.99 -9.99
2019/04/21 21:00 PDT    2.43   2.73    9  235   15  52.9  55.6 1018.5 -9.9 -9.999 -99.9 -99.99 -9.99
2019/04/21 21:06 PDT    2.50   2.79    8  228   16  52.9  55.6 1018.6 -9.9 -9.999 -99.9 -99.99 -9.99
2019/04/21 21:12 PDT    2.57   2.86    8  237   15  52.7  55.8 1018.7 -9.9 -9.999 -99.9 -99.99 -9.99
2019/04/21 21:18 PDT    2.65   2.95    7  240   13  52.7  55.8 1018.9 -9.9 -9.999 -99.9 -99.99 -9.99
2019/04/21 21:24 PDT    2.73   3.06    5  221   13  52.7  55.9 1019.0 -9.9 -9.999 -99.9 -99.99 -9.99
2019/04/21 21:30 PDT    2.81   3.14    6  212   12  52.7  56.1 1019.1 -9.9 -9.999 -99.9 -99.99 -9.99
2019/04/21 21:36 PDT    2.90   3.20    6  220   10  52.9  56.3 1019.1 -9.9 -9.999 -99.9 -99.99 -9.99
2019/04/21 21:42 PDT    2.98   3.27    7  214   10  52.9  56.5 1019.1 -9.9 -9.999 -99.9 -99.99 -9.99
2019/04/21 21:48 PDT    3.07   3.35    6  218    9  52.7  56.7 1019.1 -9.9 -9.999 -99.9 -99.99 -9.99
2019/04/21 21:54 PDT    3.17   3.43    7  209   10  52.7  56.7 1019.1 -9.9 -9.999 -99.9 -99.99 -9.99
2019/04/21 22:00 PDT    3.26   3.49    8  226   10  52.9  56.7 1019.2 -9.9 -9.999 -99.9 -99.99 -9.99
2019/04/21 22:06 PDT    3.36   3.57    8  220   11  52.7  56.7 1019.1 -9.9 -9.999 -99.9 -99.99 -9.99
2019/04/21 22:12 PDT    3.45   3.64    8  218   11  52.7  56.7 1019.0 -9.9 -9.999 -99.9 -99.99 -9.99
2019/04/21 22:18 PDT    3.55   3.73    9  216   11  52.7  56.7 1019.1 -9.9 -9.999 -99.9 -99.99 -9.99
2019/04/21 22:24 PDT    3.65   3.85    7  222   11  52.9  56.7 1019.2 -9.9 -9.999 -99.9 -99.99 -9.99
2019/04/21 22:30 PDT    3.75   3.98    7  216   10  52.7  56.7 1019.3 -9.9 -9.999 -99.9 -99.99 -9.99
2019/04/21 22:36 PDT    3.85   4.07    6  208    9  52.5  56.7 1019.3 -9.9 -9.999 -99.9 -99.99 -9.99
2019/04/21 22:42 PDT    3.95   4.15    5  212    9  52.5  56.7 1019.3 -9.9 -9.999 -99.9 -99.99 -9.99
2019/04/21 22:48 PDT    4.05   4.21    5  207    9  52.5  56.7 1019.3 -9.9 -9.999 -99.9 -99.99 -9.99
2019/04/21 22:54 PDT    4.15   4.30    5  199    8  52.2  56.8 1019.3 -9.9 -9.999 -99.9 -99.99 -9.99
2019/04/21 23:00 PDT    4.25   4.38    4  184    6  52.2  56.8 1019.4 -9.9 -9.999 -99.9 -99.99 -9.99
2019/04/21 23:06 PDT    4.35   4.47    2  155    4  52.0  56.8 1019.5 -9.9 -9.999 -99.9 -99.99 -9.99
2019/04/21 23:12 PDT    4.44   4.56    3  181    4  52.0  56.8 1019.5 -9.9 -9.999 -99.9 -99.99 -9.99
2019/04/21 23:18 PDT    4.54   4.63    3  185    4  51.8  56.8 1019.5 -9.9 -9.999 -99.9 -99.99 -9.99
2019/04/21 23:24 PDT    4.63   4.71    3  188    4  51.6  56.7 1019.5 -9.9 -9.999 -99.9 -99.99 -9.99
2019/04/21 23:30 PDT    4.73   4.79    3  189    4  51.6  56.8 1019.5 -9.9 -9.999 -99.9 -99.99 -9.99
2019/04/21 23:36 PDT    4.82   4.91    3  184    5  51.4  56.8 1019.5 -9.9 -9.999 -99.9 -99.99 -9.99
2019/04/21 23:42 PDT    4.91   5.03    3  203    5  51.6  56.8 1019.5 -9.9 -9.999 -99.9 -99.99 -9.99
2019/04/21 23:48 PDT    4.99   5.07    4  204    4  51.4  56.8 1019.6 -9.9 -9.999 -99.9 -99.99 -9.99
2019/04/21 23:54 PDT    5.08   5.14    2  211    4  51.4  56.5 1019.6 -9.9 -9.999 -99.9 -99.99 -9.99
2019/04/22 00:00 PDT    5.16   5.22    2  213    4  51.6  55.8 1019.5 -9.9 -9.999 -99.9 -99.99 -9.99
2019/04/22 00:06 PDT    5.24   5.26    2  174    4  51.4  55.6 1019.6 -9.9 -9.999 -99.9 -99.99 -9.99
2019/04/22 00:12 PDT    5.31   5.30    2  184    3  51.1  55.0 1019.4 -9.9 -9.999 -99.9 -99.99 -9.99
2019/04/22 00:18 PDT    5.38   5.38    2  191    3  51.3  54.9 1019.5 -9.9 -9.999 -99.9 -99.99 -9.99
2019/04/22 00:24 PDT    5.45   5.46    2  194    3  51.3  54.7 1019.4 -9.9 -9.999 -99.9 -99.99 -9.99
2019/04/22 00:30 PDT    5.52   5.52    2  223    4  51.6  54.5 1019.6 -9.9 -9.999 -99.9 -99.99 -9.99
2019/04/22 00:36 PDT    5.58   5.63    2  243    3  51.6  54.3 1019.6 -9.9 -9.999 -99.9 -99.99 -9.99
2019/04/22 00:42 PDT    5.64   5.71    4  212    5  51.8  54.1 1019.6 -9.9 -9.999 -99.9 -99.99 -9.99
2019/04/22 00:48 PDT    5.69   5.74    4  222    8  52.0  54.0 1019.5 -9.9 -9.999 -99.9 -99.99 -9.99
2019/04/22 00:54 PDT    5.74   5.79    4  232    8  51.8  53.8 1019.5 -9.9 -9.999 -99.9 -99.99 -9.99
2019/04/22 01:00 PDT    5.78   5.84    3  245    6  52.0  53.8 1019.6 -9.9 -9.999 -99.9 -99.99 -9.99
2019/04/22 01:06 PDT    5.82   5.86    3  216    5  51.8  53.6 1019.6 -9.9 -9.999 -99.9 -99.99 -9.99
2019/04/22 01:12 PDT    5.86   5.87    2  234    6  51.8  53.6 1019.6 -9.9 -9.999 -99.9 -99.99 -9.99
2019/04/22 01:18 PDT    5.89   5.92    0  101    4  52.0  53.6 1019.6 -9.9 -9.999 -99.9 -99.99 -9.99
2019/04/22 01:24 PDT    5.91   5.95    2  234    4  52.0  53.4 1019.5 -9.9 -9.999 -99.9 -99.99 -9.99
2019/04/22 01:30 PDT    5.93   5.98    1  158    3  51.8  53.4 1019.4 -9.9 -9.999 -99.9 -99.99 -9.99
2019/04/22 01:36 PDT    5.94   6.00    1  278    2  51.8  53.4 1019.4 -9.9 -9.999 -99.9 -99.99 -9.99
2019/04/22 01:42 PDT    5.95   6.01    0  295    2  51.8  53.4 1019.5 -9.9 -9.999 -99.9 -99.99 -9.99
2019/04/22 01:48 PDT    5.95   6.04    2  215    3  51.6  53.4 1019.5 -9.9 -9.999 -99.9 -99.99 -9.99
2019/04/22 01:54 PDT    5.95   6.06    3  278    3  51.6  53.4 1019.3 -9.9 -9.999 -99.9 -99.99 -9.99
2019/04/22 02:00 PDT    5.93   6.04    2  283    4  51.8  53.2 1019.3 -9.9 -9.999 -99.9 -99.99 -9.99
2019/04/22 02:06 PDT    5.91   6.00    1  224    4  51.8  53.2 1019.4 -9.9 -9.999 -99.9 -99.99 -9.99
2019/04/22 02:12 PDT    5.89   5.97    1  160    1  51.6  53.4 1019.3 -9.9 -9.999 -99.9 -99.99 -9.99
2019/04/22 02:18 PDT    5.85   5.94    1  158    2  51.4  53.4 1019.2 -9.9 -9.999 -99.9 -99.99 -9.99
2019/04/22 02:24 PDT    5.81   5.90    0  137    1  51.3  53.4 1019.2 -9.9 -9.999 -99.9 -99.99 -9.99
2019/04/22 02:30 PDT    5.77   5.85    2  201    3  51.3  53.4 1019.1 -9.9 -9.999 -99.9 -99.99 -9.99
2019/04/22 02:36 PDT    5.71   5.84    2  284    3  51.4  53.8 1019.1 -9.9 -9.999 -99.9 -99.99 -9.99
2019/04/22 02:42 PDT    5.65   5.82    2  235    3  51.3  53.8 1019.1 -9.9 -9.999 -99.9 -99.99 -9.99
2019/04/22 02:48 PDT    5.58   5.77    2  284    3  51.1  53.8 1019.1 -9.9 -9.999 -99.9 -99.99 -9.99
2019/04/22 02:54 PDT    5.51   5.65    2  262    3  51.1  53.6 1019.1 -9.9 -9.999 -99.9 -99.99 -9.99
2019/04/22 03:00 PDT    5.43   5.52    0  259    3  51.1  53.4 1019.1 -9.9 -9.999 -99.9 -99.99 -9.99
2019/04/22 03:06 PDT    5.34   5.40    1  237    2  50.7  53.4 1019.0 -9.9 -9.999 -99.9 -99.99 -9.99
2019/04/22 03:12 PDT    5.24   5.30    1  320    2  50.9  53.2 1019.1 -9.9 -9.999 -99.9 -99.99 -9.99
2019/04/22 03:18 PDT    5.14   5.22    1  315    2  50.9  53.4 1019.1 -9.9 -9.999 -99.9 -99.99 -9.99
2019/04/22 03:24 PDT    5.03   5.13    2  264    3  50.9  53.6 1018.9 -9.9 -9.999 -99.9 -99.99 -9.99
2019/04/22 03:30 PDT    4.92   5.02    1  232    4  50.9  53.4 1018.9 -9.9 -9.999 -99.9 -99.99 -9.99
2019/04/22 03:36 PDT    4.80   4.94    3  250    5  50.7  53.6 1018.9 -9.9 -9.999 -99.9 -99.99 -9.99
2019/04/22 03:42 PDT    4.67   4.82    1  283    4  50.7  53.6 1018.9 -9.9 -9.999 -99.9 -99.99 -9.99
2019/04/22 03:48 PDT    4.54   4.67    4  219    5  50.7  53.6 1018.9 -9.9 -9.999 -99.9 -99.99 -9.99
2019/04/22 03:54 PDT    4.40   4.54    3  192    7  51.1  53.4 1018.9 -9.9 -9.999 -99.9 -99.99 -9.99
2019/04/22 04:00 PDT    4.26   4.39    3  197    5  50.9  53.4 1018.9 -9.9 -9.999 -99.9 -99.99 -9.99
2019/04/22 04:06 PDT    4.12   4.21    4  224    4  50.9  53.4 1018.9 -9.9 -9.999 -99.9 -99.99 -9.99
2019/04/22 04:12 PDT    3.97   4.06    3  258    4  50.7  53.4 1018.9 -9.9 -9.999 -99.9 -99.99 -9.99
2019/04/22 04:18 PDT    3.82   3.86    2  256    3  50.5  53.2 1019.0 -9.9 -9.999 -99.9 -99.99 -9.99
2019/04/22 04:24 PDT    3.66   3.68    1  253    2  50.4  53.2 1019.0 -9.9 -9.999 -99.9 -99.99 -9.99
2019/04/22 04:30 PDT    3.51   3.47    2  227    4  50.4  53.4 1019.0 -9.9 -9.999 -99.9 -99.99 -9.99
2019/04/22 04:36 PDT    3.35   3.30    4  190    6  50.5  53.4 1018.9 -9.9 -9.999 -99.9 -99.99 -9.99
2019/04/22 04:42 PDT    3.18   3.15    2  207    4  50.5  53.2 1018.9 -9.9 -9.999 -99.9 -99.99 -9.99
2019/04/22 04:48 PDT    3.02   2.96    0  330    2  50.4  53.2 1018.9 -9.9 -9.999 -99.9 -99.99 -9.99
2019/04/22 04:54 PDT    2.85   2.80    1  226    2  50.4  53.1 1018.9 -9.9 -9.999 -99.9 -99.99 -9.99
2019/04/22 05:00 PDT    2.69   2.63    0  238    2  50.4  53.4 1018.9 -9.9 -9.999 -99.9 -99.99 -9.99
2019/04/22 05:06 PDT    2.52   2.43    2  209    3  50.2  53.4 1018.9 -9.9 -9.999 -99.9 -99.99 -9.99
2019/04/22 05:12 PDT    2.36   2.22    2  240    3  50.0  53.4 1018.9 -9.9 -9.999 -99.9 -99.99 -9.99
2019/04/22 05:18 PDT    2.19   2.03    2  248    2  49.6  53.4 1018.8 -9.9 -9.999 -99.9 -99.99 -9.99
2019/04/22 05:24 PDT    2.03   1.83    1  212    2  49.6  53.4 1018.8 -9.9 -9.999 -99.9 -99.99 -9.99
2019/04/22 05:30 PDT    1.87   1.66    1  223    2  49.5  53.6 1018.8 -9.9 -9.999 -99.9 -99.99 -9.99
2019/04/22 05:36 PDT    1.71   1.52    2  204    2  49.5  53.6 1018.9 -9.9 -9.999 -99.9 -99.99 -9.99
2019/04/22 05:42 PDT    1.55   1.41    2  217    3  49.5  53.6 1018.9 -9.9 -9.999 -99.9 -99.99 -9.99
2019/04/22 05:48 PDT    1.40   1.23    2  223    3  49.5  53.4 1018.9 -9.9 -9.999 -99.9 -99.99 -9.99
2019/04/22 05:54 PDT    1.24   1.12    3  216    4  49.5  53.2 1018.8 -9.9 -9.999 -99.9 -99.99 -9.99
2019/04/22 06:00 PDT    1.10   0.99    3  216    4  49.6  53.4 1018.8 -9.9 -9.999 -99.9 -99.99 -9.99
2019/04/22 06:06 PDT    0.95   0.83    3  208    4  49.5  53.4 1018.9 -9.9 -9.999 -99.9 -99.99 -9.99
2019/04/22 06:12 PDT    0.81   0.70    3  206    3  49.3  53.4 1018.9 -9.9 -9.999 -99.9 -99.99 -9.99
2019/04/22 06:18 PDT    0.68   0.57    2  220    4  49.5  53.2 1018.9 -9.9 -9.999 -99.9 -99.99 -9.99
2019/04/22 06:24 PDT    0.55   0.44    1  211    1  49.3  53.2 1019.0 -9.9 -9.999 -99.9 -99.99 -9.99
2019/04/22 06:30 PDT    0.43   0.29    2  275    2  49.6  53.4 1019.0 -9.9 -9.999 -99.9 -99.99 -9.99
2019/04/22 06:36 PDT    0.31   0.17    2  197    3  49.5  53.2 1019.0 -9.9 -9.999 -99.9 -99.99 -9.99
2019/04/22 06:42 PDT    0.19   0.07    3  203    4  49.6  53.2 1019.1 -9.9 -9.999 -99.9 -99.99 -9.99
2019/04/22 06:48 PDT    0.09   0.02    3  199    4  49.6  53.2 1019.1 -9.9 -9.999 -99.9 -99.99 -9.99
2019/04/22 06:54 PDT   -0.01  -0.02    2  208    3  50.0  53.2 1019.2 -9.9 -9.999 -99.9 -99.99 -9.99
2019/04/22 07:00 PDT   -0.11  -0.05    2  201    2  50.4  53.4 1019.3 -9.9 -9.999 -99.9 -99.99 -9.99
2019/04/22 07:06 PDT   -0.19  -0.11    1  193    2  50.7  53.6 1019.4 -9.9 -9.999 -99.9 -99.99 -9.99
2019/04/22 07:12 PDT   -0.28  -0.22    1  182    2  51.3  53.6 1019.6 -9.9 -9.999 -99.9 -99.99 -9.99
2019/04/22 07:18 PDT   -0.35  -0.28    2  199    3  51.3  53.6 1019.6 -9.9 -9.999 -99.9 -99.99 -9.99
2019/04/22 07:24 PDT   -0.42  -0.37    1  175    2  51.8  54.0 1019.5 -9.9 -9.999 -99.9 -99.99 -9.99
2019/04/22 07:30 PDT   -0.48  -0.47    0  350    2  53.1  54.1 1019.5 -9.9 -9.999 -99.9 -99.99 -9.99
2019/04/22 07:36 PDT   -0.53  -0.53    0  284    0  54.0  54.3 1019.6 -9.9 -9.999 -99.9 -99.99 -9.99
2019/04/22 07:42 PDT   -0.58  -0.56    1  313    2  54.5  54.1 1019.7 -9.9 -9.999 -99.9 -99.99 -9.99
2019/04/22 07:48 PDT   -0.62  -0.59    3  290    4  54.3  54.5 1019.8 -9.9 -9.999 -99.9 -99.99 -9.99
2019/04/22 07:54 PDT   -0.65  -0.59    2  297    4  54.3  54.9 1019.8 -9.9 -9.999 -99.9 -99.99 -9.99
2019/04/22 08:00 PDT   -0.68  -0.61    2  276    3  54.7  54.9 1019.8 -9.9 -9.999 -99.9 -99.99 -9.99
2019/04/22 08:06 PDT   -0.69  -0.61    2  303    4  54.3  55.0 1019.8 -9.9 -9.999 -99.9 -99.99 -9.99
2019/04/22 08:12 PDT   -0.71  -0.61    4  295    5  54.3  55.0 1019.8 -9.9 -9.999 -99.9 -99.99 -9.99
2019/04/22 08:18 PDT   -0.71  -0.63    3  309    4  54.5  55.0 1019.8 -9.9 -9.999 -99.9 -99.99 -9.99
2019/04/22 08:24 PDT   -0.72  -0.59    5  314    6  54.1  55.2 1019.9 -9.9 -9.999 -99.9 -99.99 -9.99
2019/04/22 08:30 PDT   -0.71  -0.58    5  308    6  54.1  55.6 1020.0 -9.9 -9.999 -99.9 -99.99 -9.99
2019/04/22 08:36 PDT   -0.70  -0.55    5  304    6  54.1  55.8 1020.0 -9.9 -9.999 -99.9 -99.99 -9.99
2019/04/22 08:42 PDT   -0.68  -0.52    4  297    6  54.1  55.9 1020.0 -9.9 -9.999 -99.9 -99.99 -9.99
2019/04/22 08:48 PDT   -0.66  -0.48    5  304    7  54.3  56.5 1020.1 -9.9 -9.999 -99.9 -99.99 -9.99
2019/04/22 08:54 PDT   -0.63  -0.46    4  288    6  54.7  56.7 1020.2 -9.9 -9.999 -99.9 -99.99 -9.99
2019/04/22 09:00 PDT   -0.59  -0.42    4  305    6  55.0  56.8 1020.1 -9.9 -9.999 -99.9 -99.99 -9.99
2019/04/22 09:06 PDT   -0.55  -0.37    6  302    7  54.9  56.8 1020.1 -9.9 -9.999 -99.9 -99.99 -9.99
2019/04/22 09:12 PDT   -0.51  -0.33    4  291    6  55.2  56.8 1020.2 -9.9 -9.999 -99.9 -99.99 -9.99
2019/04/22 09:18 PDT   -0.46  -0.28    4  279    6  55.4  56.8 1020.2 -9.9 -9.999 -99.9 -99.99 -9.99
2019/04/22 09:24 PDT   -0.40  -0.22    4  278    5  55.8  57.0 1020.2 -9.9 -9.999 -99.9 -99.99 -9.99
2019/04/22 09:30 PDT   -0.34  -0.16    4  294    6  55.9  57.4 1020.2 -9.9 -9.999 -99.9 -99.99 -9.99
2019/04/22 09:36 PDT   -0.27  -0.08    8  275   10  55.8  57.6 1020.2 -9.9 -9.999 -99.9 -99.99 -9.99
2019/04/22 09:42 PDT   -0.20  -0.05    6  289    9  55.4  57.6 1020.2 -9.9 -9.999 -99.9 -99.99 -9.99
2019/04/22 09:48 PDT   -0.13   0.02    5  277    9  55.4  57.9 1020.2 -9.9 -9.999 -99.9 -99.99 -9.99
2019/04/22 09:54 PDT   -0.05   0.10    8  278   11  55.2  58.1 1020.2 -9.9 -9.999 -99.9 -99.99 -9.99
2019/04/22 10:00 PDT    0.03   0.17    6  249   10  55.8  58.3 1020.2 -9.9 -9.999 -99.9 -99.99 -9.99
2019/04/22 10:06 PDT    0.12   0.26    8  265   10  55.6  58.3 1020.2 -9.9 -9.999 -99.9 -99.99 -9.99
2019/04/22 10:12 PDT    0.20   0.32    6  257   10  56.5  58.5 1020.2 -9.9 -9.999 -99.9 -99.99 -9.99
2019/04/22 10:18 PDT    0.30   0.41    6  253    9  57.4  58.5 1020.2 -9.9 -9.999 -99.9 -99.99 -9.99
2019/04/22 10:24 PDT    0.39   0.49    8  259   11  57.2  58.6 1020.3 -9.9 -9.999 -99.9 -99.99 -9.99
2019/04/22 10:30 PDT    0.49   0.56    6  263    9  57.6  58.6 1020.2 -9.9 -9.999 -99.9 -99.99 -9.99
2019/04/22 10:36 PDT    0.59   0.63    8  255   10  57.2  58.6 1020.2 -9.9 -9.999 -99.9 -99.99 -9.99
2019/04/22 10:42 PDT    0.69   0.75    7  259   10  57.6  58.8 1020.2 -9.9 -9.999 -99.9 -99.99 -9.99
2019/04/22 10:48 PDT    0.79   0.86    6  247   10  58.3  58.8 1020.1 -9.9 -9.999 -99.9 -99.99 -9.99
2019/04/22 10:54 PDT    0.90   0.98    5  257    8  59.7  58.8 1020.1 -9.9 -9.999 -99.9 -99.99 -9.99
2019/04/22 11:00 PDT    1.01   1.08    7  274    9  59.4  58.8 1020.1 -9.9 -9.999 -99.9 -99.99 -9.99
2019/04/22 11:06 PDT    1.12   1.17    9  270   12  58.1  58.8 1020.1 -9.9 -9.999 -99.9 -99.99 -9.99
2019/04/22 11:12 PDT    1.23   1.26   10  247   13  57.7  59.0 1020.1 -9.9 -9.999 -99.9 -99.99 -9.99
2019/04/22 11:18 PDT    1.34   1.36    8  251   13  57.6  59.0 1020.1 -9.9 -9.999 -99.9 -99.99 -9.99
2019/04/22 11:24 PDT    1.45   1.47   11  247   13  56.8  59.0 1020.0 -9.9 -9.999 -99.9 -99.99 -9.99
2019/04/22 11:30 PDT    1.56   1.60   11  247   14  56.5  59.2 1020.1 -9.9 -9.999 -99.9 -99.99 -9.99
2019/04/22 11:36 PDT    1.67   1.73   10  243   15  56.7  59.2 1020.1 -9.9 -9.999 -99.9 -99.99 -9.99
2019/04/22 11:42 PDT    1.78   1.84 -999 -999 -999 -99.9 -99.9 -999.9 -9.9 -9.999 -99.9 -99.99 -9.99
2019/04/22 11:48 PDT    1.90   1.92   11  241   19  56.5  59.0 1020.2 -9.9 -9.999 -99.9 -99.99 -9.99
2019/04/22 11:54 PDT    2.01   2.00   13  249   17  55.9  58.8 1020.1 -9.9 -9.999 -99.9 -99.99 -9.99
2019/04/22 12:00 PDT    2.12   2.11   12  235   15  56.5  58.8 1020.0 -9.9 -9.999 -99.9 -99.99 -9.99
2019/04/22 12:06 PDT    2.23   2.24   12  244   17  56.7  58.8 1019.9 -9.9 -9.999 -99.9 -99.99 -9.99
2019/04/22 12:12 PDT    2.34   2.35   11  238   16  56.8  58.3 1019.9 -9.9 -9.999 -99.9 -99.99 -9.99
2019/04/22 12:18 PDT    2.45   2.48   11  241   16  57.0  58.5 1019.8 -9.9 -9.999 -99.9 -99.99 -9.99
2019/04/22 12:24 PDT    2.56   2.60   11  244   15  57.4  57.9 1019.7 -9.9 -9.999 -99.9 -99.99 -9.99
2019/04/22 12:30 PDT    2.67   2.69   10  248   14  57.9  58.8 1019.7 -9.9 -9.999 -99.9 -99.99 -9.99
2019/04/22 12:36 PDT    2.78   2.78   10  242   16  57.7  58.5 1019.6 -9.9 -9.999 -99.9 -99.99 -9.99
2019/04/22 12:42 PDT    2.88   2.89   12  243   16  57.4  58.5 1019.6 -9.9 -9.999 -99.9 -99.99 -9.99
2019/04/22 12:48 PDT    2.99   2.98   11  242   17  57.4  58.3 1019.5 -9.9 -9.999 -99.9 -99.99 -9.99
2019/04/22 12:54 PDT    3.09   3.08   12  239   18  57.0  57.9 1019.5 -9.9 -9.999 -99.9 -99.99 -9.99
2019/04/22 13:00 PDT    3.19   3.19   12  242   17  57.4  57.7 1019.4 -9.9 -9.999 -99.9 -99.99 -9.99
2019/04/22 13:06 PDT    3.29   3.29   10  238   18  57.7  57.2 1019.3 -9.9 -9.999 -99.9 -99.99 -9.99
2019/04/22 13:12 PDT    3.38   3.43   15  248   18  57.6  56.7 1019.2 -9.9 -9.999 -99.9 -99.99 -9.99
2019/04/22 13:18 PDT    3.48   3.56   12  246   17  58.3  56.1 1019.1 -9.9 -9.999 -99.9 -99.99 -9.99
2019/04/22 13:24 PDT    3.57   3.64   10  254   15  59.9  56.8 1019.1 -9.9 -9.999 -99.9 -99.99 -9.99
2019/04/22 13:30 PDT    3.66   3.69   10  246   16  59.2  56.5 1019.2 -9.9 -9.999 -99.9 -99.99 -9.99
2019/04/22 13:36 PDT    3.75   3.78   11  247   17  58.6  56.7 1019.1 -9.9 -9.999 -99.9 -99.99 -9.99
2019/04/22 13:42 PDT    3.83   3.85   12  251   17  59.0  56.1 1019.1 -9.9 -9.999 -99.9 -99.99 -9.99
2019/04/22 13:48 PDT    3.91   3.87   12  222   18  60.1  56.1 1018.9 -9.9 -9.999 -99.9 -99.99 -9.99
2019/04/22 13:54 PDT    3.99   3.97   11  229   19  60.3  55.9 1018.9 -9.9 -9.999 -99.9 -99.99 -9.99
2019/04/22 14:00 PDT    4.06   4.05   10  229   15  61.0  55.9 1018.7 -9.9 -9.999 -99.9 -99.99 -9.99
2019/04/22 14:06 PDT    4.13   4.12    9  213   13  62.1  55.9 1018.7 -9.9 -9.999 -99.9 -99.99 -9.99
2019/04/22 14:12 PDT    4.20   4.20    8  234   16  61.9  55.8 1018.6 -9.9 -9.999 -99.9 -99.99 -9.99
2019/04/22 14:18 PDT    4.26   4.26   10  252   16  61.7  55.8 1018.6 -9.9 -9.999 -99.9 -99.99 -9.99
2019/04/22 14:24 PDT    4.31   4.29    9  224   16  60.8  55.6 1018.6 -9.9 -9.999 -99.9 -99.99 -9.99
2019/04/22 14:30 PDT    4.37   4.36   11  228   17  60.1  55.6 1018.5 -9.9 -9.999 -99.9 -99.99 -9.99
2019/04/22 14:36 PDT    4.41   4.42   14  230   17  59.7  55.6 1018.4 -9.9 -9.999 -99.9 -99.99 -9.99
2019/04/22 14:42 PDT    4.46   4.47    6  228   14  60.4  55.4 1018.4 -9.9 -9.999 -99.9 -99.99 -9.99
2019/04/22 14:48 PDT    4.49   4.50   10  227   17  59.9  55.0 1018.3 -9.9 -9.999 -99.9 -99.99 -9.99
2019/04/22 14:54 PDT    4.53   4.53    6  232   12  60.6  55.2 1018.2 -9.9 -9.999 -99.9 -99.99 -9.99
2019/04/22 15:00 PDT    4.55   4.56   12  228   17  60.1  55.4 1018.0 -9.9 -9.999 -99.9 -99.99 -9.99
2019/04/22 15:06 PDT    4.58   4.60   11  230   15  60.4  55.4 1018.0 -9.9 -9.999 -99.9 -99.99 -9.99
2019/04/22 15:12 PDT    4.59   4.62   10  227   16  60.6  55.4 1017.9 -9.9 -9.999 -99.9 -99.99 -9.99
2019/04/22 15:18 PDT    4.60   4.66   11  219   17  60.6  55.6 1017.8 -9.9 -9.999 -99.9 -99.99 -9.99
2019/04/22 15:24 PDT    4.61   4.65    6  216   16  61.5  55.2 1017.8 -9.9 -9.999 -99.9 -99.99 -9.99
2019/04/22 15:30 PDT    4.61   4.68   10  209   17  61.0  55.0 1017.8 -9.9 -9.999 -99.9 -99.99 -9.99
2019/04/22 15:36 PDT    4.61   4.68    6  201   10  61.7  55.0 1017.7 -9.9 -9.999 -99.9 -99.99 -9.99
2019/04/22 15:42 PDT    4.60   4.67    6  239   16  61.9  54.9 1017.5 -9.9 -9.999 -99.9 -99.99 -9.99
2019/04/22 15:48 PDT    4.58   4.65    6  216   11  62.1  55.0 1017.5 -9.9 -9.999 -99.9 -99.99 -9.99
2019/04/22 15:54 PDT    4.56   4.60    6  248   11  62.4  54.9 1017.4 -9.9 -9.999 -99.9 -99.99 -9.99
2019/04/22 16:00 PDT    4.54   4.58    9  222   14  62.4  54.7 1017.3 -9.9 -9.999 -99.9 -99.99 -9.99
2019/04/22 16:06 PDT    4.51   4.57    9  224   13  62.2  54.3 1017.2 -9.9 -9.999 -99.9 -99.99 -9.99
2019/04/22 16:12 PDT    4.48   4.55    8  238   13  62.4  54.3 1017.2 -9.9 -9.999 -99.9 -99.99 -9.99
2019/04/22 16:18 PDT    4.44   4.51   12  239   18  61.5  54.1 1017.2 -9.9 -9.999 -99.9 -99.99 -9.99
2019/04/22 16:24 PDT    4.40   4.47   10  242   17  61.0  54.0 1017.1 -9.9 -9.999 -99.9 -99.99 -9.99
2019/04/22 16:30 PDT    4.35   4.43    8  238   14  61.0  53.4 1017.1 -9.9 -9.999 -99.9 -99.99 -9.99
2019/04/22 16:36 PDT    4.30   4.39   11  241   18  60.8  53.4 1016.9 -9.9 -9.999 -99.9 -99.99 -9.99
2019/04/22 16:42 PDT    4.25   4.34   13  236   20  59.9  53.2 1016.9 -9.9 -9.999 -99.9 -99.99 -9.99
2019/04/22 16:48 PDT    4.19   4.27   15  242   20  59.0  52.9 1016.8 -9.9 -9.999 -99.9 -99.99 -9.99
2019/04/22 16:54 PDT    4.13   4.23   14  244   20  58.6  52.9 1016.8 -9.9 -9.999 -99.9 -99.99 -9.99
2019/04/22 17:00 PDT    4.07   4.17   12  243   18  59.4  52.9 1016.8 -9.9 -9.999 -99.9 -99.99 -9.99
2019/04/22 17:06 PDT    4.01   4.09   14  244   21  58.6  52.9 1016.7 -9.9 -9.999 -99.9 -99.99 -9.99
2019/04/22 17:12 PDT    3.94   4.07   13  228   21  58.8  52.9 1016.7 -9.9 -9.999 -99.9 -99.99 -9.99
2019/04/22 17:18 PDT    3.87   4.01   16  222   22  58.5  52.9 1016.7 -9.9 -9.999 -99.9 -99.99 -9.99
2019/04/22 17:24 PDT    3.80   3.97   13  238   22  58.5  52.7 1016.6 -9.9 -9.999 -99.9 -99.99 -9.99
2019/04/22 17:30 PDT    3.73   3.95   11  228   15  58.6  54.5 1016.6 -9.9 -9.999 -99.9 -99.99 -9.99
2019/04/22 17:36 PDT    3.66   3.88   12  234   19  58.1  53.6 1016.5 -9.9 -9.999 -99.9 -99.99 -9.99
2019/04/22 17:42 PDT    3.58   3.84   12  241   20  57.7  53.4 1016.6 -9.9 -9.999 -99.9 -99.99 -9.99
2019/04/22 17:48 PDT    3.51   3.74   10  228   18  57.9  54.1 1016.5 -9.9 -9.999 -99.9 -99.99 -9.99
2019/04/22 17:54 PDT    3.44   3.65   11  224   18  58.5  54.7 1016.4 -9.9 -9.999 -99.9 -99.99 -9.99
2019/04/22 18:00 PDT    3.36   3.58   13  221   18  58.1  54.5 1016.5 -9.9 -9.999 -99.9 -99.99 -9.99
2019/04/22 18:06 PDT    3.29   3.48    9  229   12  58.3  55.2 1016.6 -9.9 -9.999 -99.9 -99.99 -9.99
2019/04/22 18:12 PDT    3.22   3.38   11  219   16  57.7  55.2 1016.4 -9.9 -9.999 -99.9 -99.99 -9.99
2019/04/22 18:18 PDT    3.15   3.32    7  234   18  57.6  55.2 1016.5 -9.9 -9.999 -99.9 -99.99 -9.99
2019/04/22 18:24 PDT    3.08   3.26   10  211   15  57.6  55.2 1016.4 -9.9 -9.999 -99.9 -99.99 -9.99
2019/04/22 18:30 PDT    3.01   3.18    9  211   15  57.2  55.2 1016.3 -9.9 -9.999 -99.9 -99.99 -9.99
2019/04/22 18:36 PDT    2.95   3.08    4  221   13  57.2  55.2 1016.2 -9.9 -9.999 -99.9 -99.99 -9.99
2019/04/22 18:42 PDT    2.89   3.03    4  220   13  57.2  55.4 1016.2 -9.9 -9.999 -99.9 -99.99 -9.99
2019/04/22 18:48 PDT    2.83   2.98    5  232   11  57.2  55.2 1016.2 -9.9 -9.999 -99.9 -99.99 -9.99
2019/04/22 18:54 PDT    2.77   2.92    5  225   10  57.0  55.2 1016.2 -9.9 -9.999 -99.9 -99.99 -9.99
2019/04/22 19:00 PDT    2.72   2.88    3  203    8  56.7  55.2 1016.3 -9.9 -9.999 -99.9 -99.99 -9.99
2019/04/22 19:06 PDT    2.67   2.79    4  211    8  56.3  55.2 1016.3 -9.9 -9.999 -99.9 -99.99 -9.99
2019/04/22 19:12 PDT    2.62   2.75    6  216    8  55.9  55.0 1016.2 -9.9 -9.999 -99.9 -99.99 -9.99
2019/04/22 19:18 PDT    2.58   2.73    8  229   12  55.6  55.2 1016.1 -9.9 -9.999 -99.9 -99.99 -9.99
2019/04/22 19:24 PDT    2.54   2.72    7  240   12  55.4  55.6 1016.3 -9.9 -9.999 -99.9 -99.99 -9.99
2019/04/22 19:30 PDT    2.50   2.72    9  224   14  55.4  55.6 1016.2 -9.9 -9.999 -99.9 -99.99 -9.99
2019/04/22 19:36 PDT    2.47   2.67    7  231   13  55.2  55.6 1016.2 -9.9 -9.999 -99.9 -99.99 -9.99
2019/04/22 19:42 PDT    2.45   2.67    8  247   13  55.2  55.8 1016.2 -9.9 -9.999 -99.9 -99.99 -9.99
2019/04/22 19:48 PDT    2.42   2.68    8  226   12  55.0  55.9 1016.2 -9.9 -9.999 -99.9 -99.99 -9.99
2019/04/22 19:54 PDT    2.40   2.68    8  227   14  55.0  55.9 1016.2 -9.9 -9.999 -99.9 -99.99 -9.99
2019/04/22 20:00 PDT    2.39   2.67    7  226   13  55.0  56.1 1016.1 -9.9 -9.999 -99.9 -99.99 -9.99
2019/04/22 20:06 PDT    2.38   2.68    7  228   14  55.0  56.3 1016.2 -9.9 -9.999 -99.9 -99.99 -9.99
2019/04/22 20:12 PDT    2.37   2.69    6  224   12  54.9  56.3 1016.2 -9.9 -9.999 -99.9 -99.99 -9.99
2019/04/22 20:18 PDT    2.37   2.70    4  228    9  54.9  56.1 1016.2 -9.9 -9.999 -99.9 -99.99 -9.99
2019/04/22 20:24 PDT    2.37   2.70    4  226   12  54.9  56.1 1016.3 -9.9 -9.999 -99.9 -99.99 -9.99
2019/04/22 20:30 PDT    2.38   2.72    5  247    9  54.7  55.9 1016.3 -9.9 -9.999 -99.9 -99.99 -9.99
2019/04/22 20:36 PDT    2.39   2.75    5  232    8  54.7  55.6 1016.3 -9.9 -9.999 -99.9 -99.99 -9.99
2019/04/22 20:42 PDT    2.41   2.78    4  240    9  54.7  55.6 1016.4 -9.9 -9.999 -99.9 -99.99 -9.99
2019/04/22 20:48 PDT    2.43   2.82    6  230    9  54.9  55.4 1016.4 -9.9 -9.999 -99.9 -99.99 -9.99
2019/04/22 20:54 PDT    2.45   2.89    7  233   10  54.9  55.4 1016.5 -9.9 -9.999 -99.9 -99.99 -9.99
2019/04/22 21:00 PDT    2.48 -99.99 -999 -999 -999 -99.9 -99.9 -999.9 -9.9 -9.999 -99.9 -99.99 -9.99
2019/04/22 21:06 PDT    2.51 -99.99 -999 -999 -999 -99.9 -99.9 -999.9 -9.9 -9.999 -99.9 -99.99 -9.99

Revised: 08/08/2018
NOAA / National Ocean Service
Web site owner: Center for Operational Oceanographic Products and Services